DLH3W EDDF-KIAD
Flight info
| Callsign | DLH3W |
|---|---|
| Flight time | N/A |
| Altitude | 36000 |
| Route | OBOKA3M/25C OBOKA Z28 DIBIR DCT BUDIP DCT RAVLO Y70 OTBED L60 PENIL M144 BAGSO DCT ADBUS DCT DOGAL/M083F370 NATC ELSIR/N0477F380 DCT ALLEX DCT KAYCC DCT KYLOH DCT BAF HYPER9 |
| Aircraft | A346/H-SDE2E3FGHIJ3J4J5M1RWXY/LB1D1 |
Departure
| Time | 2026-05-07 14:35 |
|---|---|
| Airport | Frankfurt Main Airport (EDDF) |
Arrival
| Time | N/A |
|---|---|
| Airport | Washington Dulles International Airport (KIAD) |
| Time | Latitude | Longitude | Altitude | Speed | Heading |
|---|---|---|---|---|---|
| 2026-05-07 13:37 | 50.04695 | 8.56162 | 364 ft | 0 kts | 340° |
| 2026-05-07 13:55 | 50.04696 | 8.56162 | 364 ft | 0 kts | 340° |
| 2026-05-07 13:55 | 50.04695 | 8.56162 | 364 ft | 0 kts | 340° |
| 2026-05-07 13:56 | 50.04696 | 8.56162 | 364 ft | 0 kts | 340° |
| 2026-05-07 13:58 | 50.04695 | 8.56162 | 364 ft | 0 kts | 340° |
| 2026-05-07 13:58 | 50.04696 | 8.56162 | 364 ft | 0 kts | 340° |
| 2026-05-07 13:59 | 50.04695 | 8.56162 | 364 ft | 0 kts | 340° |
| 2026-05-07 13:59 | 50.04696 | 8.56162 | 364 ft | 0 kts | 340° |
| 2026-05-07 14:00 | 50.04695 | 8.56162 | 364 ft | 0 kts | 340° |
| 2026-05-07 14:00 | 50.04696 | 8.56162 | 364 ft | 0 kts | 340° |
| 2026-05-07 14:01 | 50.04695 | 8.56162 | 364 ft | 0 kts | 340° |
| 2026-05-07 14:01 | 50.04696 | 8.56162 | 364 ft | 0 kts | 340° |
| 2026-05-07 14:02 | 50.04695 | 8.56162 | 364 ft | 0 kts | 340° |
| 2026-05-07 14:02 | 50.04696 | 8.56162 | 364 ft | 0 kts | 340° |
| 2026-05-07 14:04 | 50.04695 | 8.56162 | 364 ft | 0 kts | 340° |
| 2026-05-07 14:05 | 50.04696 | 8.56162 | 364 ft | 0 kts | 340° |
| 2026-05-07 14:05 | 50.04695 | 8.56162 | 364 ft | 0 kts | 340° |
| 2026-05-07 14:05 | 50.04696 | 8.56162 | 364 ft | 0 kts | 340° |
| 2026-05-07 14:06 | 50.04695 | 8.56162 | 364 ft | 0 kts | 340° |
| 2026-05-07 14:07 | 50.04696 | 8.56162 | 364 ft | 0 kts | 340° |
| 2026-05-07 14:07 | 50.04695 | 8.56162 | 364 ft | 0 kts | 340° |
| 2026-05-07 14:08 | 50.04696 | 8.56162 | 364 ft | 0 kts | 340° |
| 2026-05-07 14:10 | 50.04695 | 8.56162 | 364 ft | 0 kts | 340° |
| 2026-05-07 14:11 | 50.04696 | 8.56162 | 364 ft | 0 kts | 340° |
| 2026-05-07 14:12 | 50.04695 | 8.56162 | 364 ft | 0 kts | 340° |
| 2026-05-07 14:12 | 50.04696 | 8.56162 | 364 ft | 0 kts | 340° |
| 2026-05-07 14:18 | 50.04684 | 8.56169 | 367 ft | 4 kts | 340° |
| 2026-05-07 14:19 | 50.04659 | 8.56182 | 371 ft | 4 kts | 345° |
| 2026-05-07 14:19 | 50.04638 | 8.56193 | 371 ft | 4 kts | 322° |
| 2026-05-07 14:19 | 50.04625 | 8.56214 | 368 ft | 4 kts | 293° |
| 2026-05-07 14:19 | 50.04623 | 8.56243 | 364 ft | 4 kts | 258° |
| 2026-05-07 14:20 | 50.04630 | 8.56283 | 370 ft | 4 kts | 250° |
| 2026-05-07 14:20 | 50.04635 | 8.56301 | 369 ft | 0 kts | 250° |
| 2026-05-07 14:25 | 50.04634 | 8.56296 | 369 ft | 1 kts | 250° |
| 2026-05-07 14:25 | 50.04628 | 8.56271 | 367 ft | 4 kts | 249° |
| 2026-05-07 14:25 | 50.04621 | 8.56245 | 364 ft | 0 kts | 249° |
| 2026-05-07 14:25 | 50.04618 | 8.56230 | 365 ft | 3 kts | 249° |
| 2026-05-07 14:26 | 50.04608 | 8.56191 | 368 ft | 5 kts | 249° |
| 2026-05-07 14:26 | 50.04594 | 8.56133 | 368 ft | 7 kts | 249° |
| 2026-05-07 14:26 | 50.04576 | 8.56057 | 368 ft | 8 kts | 249° |
| 2026-05-07 14:26 | 50.04545 | 8.55979 | 370 ft | 9 kts | 214° |
| 2026-05-07 14:27 | 50.04482 | 8.55936 | 369 ft | 10 kts | 199° |
| 2026-05-07 14:27 | 50.04408 | 8.55912 | 370 ft | 12 kts | 180° |
| 2026-05-07 14:27 | 50.04331 | 8.55937 | 368 ft | 11 kts | 161° |
| 2026-05-07 14:27 | 50.04259 | 8.55946 | 368 ft | 12 kts | 202° |
| 2026-05-07 14:28 | 50.04172 | 8.55928 | 362 ft | 14 kts | 166° |
| 2026-05-07 14:28 | 50.04090 | 8.55974 | 364 ft | 10 kts | 149° |
| 2026-05-07 14:28 | 50.04080 | 8.56078 | 363 ft | 12 kts | 72° |
| 2026-05-07 14:28 | 50.04108 | 8.56199 | 367 ft | 12 kts | 70° |
| 2026-05-07 14:29 | 50.04138 | 8.56326 | 361 ft | 13 kts | 70° |
| 2026-05-07 14:29 | 50.04169 | 8.56456 | 369 ft | 13 kts | 70° |
| 2026-05-07 14:29 | 50.04201 | 8.56589 | 367 ft | 13 kts | 70° |
| 2026-05-07 14:29 | 50.04232 | 8.56722 | 367 ft | 13 kts | 70° |
| 2026-05-07 14:30 | 50.04263 | 8.56850 | 372 ft | 13 kts | 69° |
| 2026-05-07 14:30 | 50.04297 | 8.56987 | 373 ft | 14 kts | 69° |
| 2026-05-07 14:30 | 50.04331 | 8.57127 | 372 ft | 14 kts | 69° |
| 2026-05-07 14:30 | 50.04365 | 8.57273 | 373 ft | 15 kts | 70° |
| 2026-05-07 14:31 | 50.04400 | 8.57425 | 371 ft | 16 kts | 70° |
| 2026-05-07 14:31 | 50.04439 | 8.57586 | 375 ft | 15 kts | 69° |
| 2026-05-07 14:31 | 50.04477 | 8.57743 | 376 ft | 16 kts | 69° |
| 2026-05-07 14:31 | 50.04516 | 8.57908 | 374 ft | 17 kts | 70° |
| 2026-05-07 14:32 | 50.04558 | 8.58083 | 374 ft | 18 kts | 70° |
| 2026-05-07 14:32 | 50.04601 | 8.58262 | 378 ft | 17 kts | 69° |
| 2026-05-07 14:32 | 50.04638 | 8.58418 | 378 ft | 12 kts | 70° |
| 2026-05-07 14:32 | 50.04652 | 8.58477 | 380 ft | 0 kts | 70° |
| 2026-05-07 14:33 | 50.04655 | 8.58497 | 380 ft | 5 kts | 84° |
| 2026-05-07 14:33 | 50.04631 | 8.58558 | 380 ft | 9 kts | 147° |
| 2026-05-07 14:33 | 50.04575 | 8.58600 | 382 ft | 11 kts | 157° |
| 2026-05-07 14:33 | 50.04499 | 8.58606 | 382 ft | 12 kts | 224° |
| 2026-05-07 14:34 | 50.04437 | 8.58378 | 380 ft | 46 kts | 249° |
| 2026-05-07 14:34 | 50.04261 | 8.57641 | 374 ft | 98 kts | 250° |
| 2026-05-07 14:34 | 50.03968 | 8.56414 | 368 ft | 143 kts | 249° |
| 2026-05-07 14:34 | 50.03571 | 8.54768 | 364 ft | 178 kts | 249° |
| 2026-05-07 14:35 | 50.03121 | 8.52927 | 790 ft | 178 kts | 249° |
| 2026-05-07 14:35 | 50.02684 | 8.51159 | 1316 ft | 177 kts | 250° |
| 2026-05-07 14:35 | 50.02005 | 8.49486 | 1620 ft | 190 kts | 213° |
| 2026-05-07 14:35 | 50.00775 | 8.48732 | 1968 ft | 196 kts | 194° |
| 2026-05-07 14:36 | 49.99420 | 8.48293 | 2271 ft | 203 kts | 193° |
| 2026-05-07 14:36 | 49.98010 | 8.47806 | 2514 ft | 211 kts | 195° |
| 2026-05-07 14:36 | 49.96574 | 8.47233 | 2892 ft | 213 kts | 197° |
| 2026-05-07 14:36 | 49.95141 | 8.46612 | 3245 ft | 217 kts | 198° |
| 2026-05-07 14:37 | 49.93647 | 8.45939 | 3485 ft | 230 kts | 198° |
| 2026-05-07 14:37 | 49.90812 | 8.43446 | 4238 ft | 242 kts | 238° |
| 2026-05-07 14:37 | 49.89932 | 8.41228 | 4884 ft | 241 kts | 241° |
| 2026-05-07 14:38 | 49.89091 | 8.38959 | 5476 ft | 243 kts | 245° |
| 2026-05-07 14:38 | 49.88576 | 8.36487 | 6058 ft | 242 kts | 265° |
| 2026-05-07 14:38 | 49.88589 | 8.33825 | 6455 ft | 254 kts | 276° |
| 2026-05-07 14:38 | 49.88762 | 8.31028 | 6817 ft | 265 kts | 276° |
| 2026-05-07 14:39 | 49.88981 | 8.28154 | 7394 ft | 268 kts | 283° |
| 2026-05-07 14:39 | 49.89615 | 8.25438 | 8029 ft | 269 kts | 299° |
| 2026-05-07 14:39 | 49.90663 | 8.23015 | 8670 ft | 271 kts | 306° |
| 2026-05-07 14:39 | 49.91809 | 8.20662 | 9273 ft | 274 kts | 307° |
| 2026-05-07 14:40 | 49.92974 | 8.18290 | 9853 ft | 278 kts | 308° |
| 2026-05-07 14:40 | 49.94225 | 8.16017 | 10371 ft | 283 kts | 313° |
| 2026-05-07 14:40 | 49.95181 | 8.14536 | 10573 ft | 292 kts | 317° |
| 2026-05-07 14:40 | 49.96746 | 8.12400 | 10841 ft | 307 kts | 319° |
| 2026-05-07 14:41 | 49.98972 | 8.09446 | 11188 ft | 326 kts | 319° |
| 2026-05-07 14:41 | 50.00156 | 8.07876 | 11370 ft | 335 kts | 319° |
| 2026-05-07 14:41 | 50.01965 | 8.05468 | 11614 ft | 349 kts | 319° |
| 2026-05-07 14:41 | 50.03817 | 8.02995 | 11847 ft | 362 kts | 319° |
| 2026-05-07 14:42 | 50.05757 | 8.00399 | 12220 ft | 371 kts | 319° |
| 2026-05-07 14:42 | 50.07716 | 7.97773 | 12827 ft | 375 kts | 319° |
| 2026-05-07 14:42 | 50.09688 | 7.95126 | 13472 ft | 377 kts | 319° |
| 2026-05-07 14:42 | 50.11683 | 7.92444 | 14036 ft | 381 kts | 319° |
| 2026-05-07 14:43 | 50.13694 | 7.89737 | 14586 ft | 384 kts | 319° |
| 2026-05-07 14:43 | 50.15721 | 7.87005 | 15106 ft | 387 kts | 318° |
| 2026-05-07 14:43 | 50.17765 | 7.84247 | 15660 ft | 390 kts | 318° |
| 2026-05-07 14:43 | 50.19826 | 7.81459 | 16185 ft | 393 kts | 318° |
| 2026-05-07 14:44 | 50.21907 | 7.78647 | 16706 ft | 397 kts | 317° |
| 2026-05-07 14:44 | 50.24068 | 7.75882 | 17209 ft | 401 kts | 322° |
| 2026-05-07 14:44 | 50.26394 | 7.73454 | 17751 ft | 405 kts | 328° |
| 2026-05-07 14:44 | 50.28906 | 7.71392 | 18226 ft | 410 kts | 334° |
| 2026-05-07 14:45 | 50.31524 | 7.69568 | 18662 ft | 414 kts | 335° |
| 2026-05-07 14:45 | 50.34186 | 7.67788 | 19114 ft | 416 kts | 335° |
| 2026-05-07 14:45 | 50.36856 | 7.65991 | 19593 ft | 418 kts | 335° |
| 2026-05-07 14:45 | 50.39524 | 7.64172 | 20055 ft | 420 kts | 335° |
| 2026-05-07 14:46 | 50.42219 | 7.62320 | 20491 ft | 423 kts | 335° |
| 2026-05-07 14:46 | 50.44927 | 7.60455 | 20940 ft | 426 kts | 335° |
| 2026-05-07 14:46 | 50.47647 | 7.58585 | 21379 ft | 428 kts | 335° |
| 2026-05-07 14:46 | 50.50389 | 7.56695 | 21843 ft | 430 kts | 335° |
| 2026-05-07 14:47 | 50.53089 | 7.54792 | 22281 ft | 432 kts | 333° |
| 2026-05-07 14:47 | 50.55779 | 7.52654 | 22692 ft | 434 kts | 330° |
| 2026-05-07 14:47 | 50.58409 | 7.50265 | 23105 ft | 437 kts | 327° |
| 2026-05-07 14:47 | 50.60984 | 7.47692 | 23529 ft | 439 kts | 326° |
| 2026-05-07 14:48 | 50.63546 | 7.45065 | 23890 ft | 442 kts | 325° |
| 2026-05-07 14:48 | 50.66133 | 7.42397 | 24169 ft | 446 kts | 325° |
| 2026-05-07 14:48 | 50.68737 | 7.39711 | 24450 ft | 449 kts | 325° |
| 2026-05-07 14:48 | 50.71341 | 7.36979 | 24800 ft | 450 kts | 323° |
| 2026-05-07 14:49 | 50.73769 | 7.33861 | 25158 ft | 450 kts | 316° |
| 2026-05-07 14:49 | 50.75948 | 7.30294 | 25498 ft | 451 kts | 309° |
| 2026-05-07 14:49 | 50.77867 | 7.26355 | 25824 ft | 452 kts | 305° |
| 2026-05-07 14:49 | 50.79684 | 7.22296 | 26176 ft | 453 kts | 304° |
| 2026-05-07 14:50 | 50.81470 | 7.18239 | 26500 ft | 455 kts | 304° |
| 2026-05-07 14:50 | 50.83289 | 7.14108 | 26809 ft | 457 kts | 304° |
| 2026-05-07 14:50 | 50.85117 | 7.09972 | 27121 ft | 459 kts | 304° |
| 2026-05-07 14:50 | 50.86958 | 7.05817 | 27422 ft | 461 kts | 304° |
| 2026-05-07 14:51 | 50.88804 | 7.01658 | 27703 ft | 463 kts | 304° |
| 2026-05-07 14:51 | 50.90658 | 6.97472 | 27993 ft | 465 kts | 304° |
| 2026-05-07 14:51 | 50.92518 | 6.93265 | 28300 ft | 467 kts | 304° |
| 2026-05-07 14:51 | 50.94385 | 6.89036 | 28661 ft | 467 kts | 304° |
| 2026-05-07 14:52 | 50.96251 | 6.84805 | 29166 ft | 465 kts | 304° |
| 2026-05-07 14:52 | 50.98097 | 6.80610 | 29659 ft | 463 kts | 304° |
| 2026-05-07 14:52 | 50.99941 | 6.76415 | 30117 ft | 462 kts | 304° |
| 2026-05-07 14:52 | 51.01780 | 6.72227 | 30495 ft | 460 kts | 304° |
| 2026-05-07 14:53 | 51.03612 | 6.68050 | 30862 ft | 459 kts | 304° |
| 2026-05-07 14:53 | 51.05432 | 6.63888 | 31208 ft | 458 kts | 304° |
| 2026-05-07 14:53 | 51.07255 | 6.59719 | 31570 ft | 457 kts | 304° |
| 2026-05-07 14:53 | 51.09055 | 6.55592 | 31938 ft | 457 kts | 304° |
| 2026-05-07 14:54 | 51.10865 | 6.51433 | 32263 ft | 456 kts | 303° |
| 2026-05-07 14:54 | 51.12667 | 6.47280 | 32560 ft | 456 kts | 303° |
| 2026-05-07 14:54 | 51.14473 | 6.43115 | 32834 ft | 456 kts | 303° |
| 2026-05-07 14:54 | 51.16278 | 6.38946 | 33096 ft | 457 kts | 303° |
| 2026-05-07 14:55 | 51.18084 | 6.34765 | 33316 ft | 459 kts | 303° |
| 2026-05-07 14:55 | 51.19900 | 6.30559 | 33554 ft | 460 kts | 303° |
| 2026-05-07 14:55 | 51.21716 | 6.26347 | 33801 ft | 461 kts | 303° |
| 2026-05-07 14:55 | 51.23535 | 6.22121 | 34011 ft | 461 kts | 303° |
| 2026-05-07 14:56 | 51.27181 | 6.13629 | 34146 ft | 465 kts | 303° |
| 2026-05-07 14:56 | 51.28990 | 6.09340 | 34465 ft | 462 kts | 302° |
| 2026-05-07 14:56 | 51.30744 | 6.05060 | 34744 ft | 461 kts | 302° |
| 2026-05-07 14:57 | 51.32500 | 6.00738 | 34933 ft | 461 kts | 302° |
| 2026-05-07 14:57 | 51.34230 | 5.96482 | 35074 ft | 463 kts | 302° |
| 2026-05-07 14:57 | 51.36017 | 5.92199 | 35257 ft | 464 kts | 304° |
| 2026-05-07 14:57 | 51.37944 | 5.88026 | 35427 ft | 465 kts | 307° |
| 2026-05-07 14:58 | 51.40003 | 5.84019 | 35610 ft | 466 kts | 309° |
| 2026-05-07 14:58 | 51.42187 | 5.80173 | 35765 ft | 467 kts | 311° |
| 2026-05-07 14:58 | 51.44425 | 5.76383 | 35935 ft | 467 kts | 312° |
| 2026-05-07 14:58 | 51.46676 | 5.72599 | 36048 ft | 469 kts | 312° |
| 2026-05-07 14:59 | 51.51159 | 5.65049 | 36051 ft | 469 kts | 312° |
| 2026-05-07 14:59 | 51.55655 | 5.57434 | 36073 ft | 469 kts | 311° |
| 2026-05-07 15:00 | 51.60149 | 5.49792 | 36066 ft | 469 kts | 311° |
| 2026-05-07 15:00 | 51.64632 | 5.42142 | 36072 ft | 469 kts | 311° |
| 2026-05-07 15:01 | 51.69083 | 5.34521 | 36084 ft | 469 kts | 311° |
| 2026-05-07 15:01 | 51.73559 | 5.26832 | 36076 ft | 470 kts | 311° |
| 2026-05-07 15:02 | 51.78041 | 5.19112 | 36072 ft | 470 kts | 311° |
| 2026-05-07 15:02 | 51.82509 | 5.11391 | 36071 ft | 470 kts | 311° |
| 2026-05-07 15:03 | 51.86975 | 5.03650 | 36070 ft | 470 kts | 311° |
| 2026-05-07 15:03 | 51.91427 | 4.95908 | 36069 ft | 470 kts | 311° |
| 2026-05-07 15:04 | 51.95884 | 4.88131 | 36080 ft | 470 kts | 311° |
| 2026-05-07 15:04 | 52.00339 | 4.80336 | 36073 ft | 472 kts | 311° |
| 2026-05-07 15:05 | 52.04787 | 4.72527 | 36075 ft | 472 kts | 311° |
| 2026-05-07 15:05 | 52.09254 | 4.64662 | 36071 ft | 472 kts | 311° |
| 2026-05-07 15:06 | 52.13705 | 4.56802 | 36072 ft | 472 kts | 311° |
| 2026-05-07 15:06 | 52.18152 | 4.48922 | 36076 ft | 472 kts | 311° |
| 2026-05-07 15:07 | 52.22596 | 4.41012 | 36079 ft | 473 kts | 311° |
| 2026-05-07 15:07 | 52.27052 | 4.33073 | 36086 ft | 474 kts | 311° |
| 2026-05-07 15:08 | 52.31474 | 4.25159 | 36090 ft | 474 kts | 311° |
| 2026-05-07 15:08 | 52.35920 | 4.17179 | 36088 ft | 474 kts | 311° |
| 2026-05-07 15:09 | 52.40356 | 4.09189 | 36088 ft | 474 kts | 311° |
| 2026-05-07 15:09 | 52.44794 | 4.01177 | 36094 ft | 474 kts | 311° |
| 2026-05-07 15:10 | 52.49229 | 3.93127 | 36103 ft | 477 kts | 311° |
| 2026-05-07 15:10 | 52.53685 | 3.85025 | 36100 ft | 477 kts | 311° |
| 2026-05-07 15:11 | 52.58104 | 3.76970 | 36101 ft | 477 kts | 311° |
| 2026-05-07 15:11 | 52.62552 | 3.68839 | 36101 ft | 478 kts | 311° |
| 2026-05-07 15:12 | 52.66988 | 3.60684 | 36109 ft | 477 kts | 311° |
| 2026-05-07 15:12 | 52.71434 | 3.52497 | 36112 ft | 478 kts | 311° |
| 2026-05-07 15:13 | 52.75880 | 3.44270 | 36113 ft | 481 kts | 311° |
| 2026-05-07 15:13 | 52.80343 | 3.36003 | 36115 ft | 481 kts | 311° |
| 2026-05-07 15:14 | 52.84785 | 3.27729 | 36116 ft | 481 kts | 310° |
| 2026-05-07 15:14 | 52.88737 | 3.18817 | 36110 ft | 479 kts | 301° |
| 2026-05-07 15:15 | 52.91781 | 3.08985 | 36103 ft | 480 kts | 291° |
| 2026-05-07 15:15 | 52.93847 | 2.98475 | 36115 ft | 479 kts | 282° |
| 2026-05-07 15:16 | 52.95281 | 2.87670 | 36105 ft | 479 kts | 281° |
| 2026-05-07 15:16 | 52.96671 | 2.76835 | 36111 ft | 479 kts | 281° |
| 2026-05-07 15:17 | 52.98066 | 2.66001 | 36101 ft | 479 kts | 281° |
| 2026-05-07 15:17 | 52.99461 | 2.55142 | 36104 ft | 481 kts | 281° |
| 2026-05-07 15:18 | 53.00843 | 2.44337 | 36113 ft | 481 kts | 281° |
| 2026-05-07 15:18 | 53.02225 | 2.33435 | 36109 ft | 481 kts | 281° |
| 2026-05-07 15:19 | 53.03597 | 2.22528 | 36103 ft | 481 kts | 281° |
| 2026-05-07 15:19 | 53.04956 | 2.11618 | 36102 ft | 481 kts | 281° |
| 2026-05-07 15:20 | 53.06305 | 2.00696 | 36101 ft | 481 kts | 281° |
| 2026-05-07 15:20 | 53.07640 | 1.89781 | 36108 ft | 482 kts | 281° |
| 2026-05-07 15:21 | 53.08968 | 1.78823 | 36100 ft | 482 kts | 280° |
| 2026-05-07 15:21 | 53.10284 | 1.67870 | 36093 ft | 482 kts | 280° |
| 2026-05-07 15:22 | 53.11592 | 1.56914 | 36089 ft | 482 kts | 280° |
| 2026-05-07 15:22 | 53.12891 | 1.45948 | 36091 ft | 482 kts | 280° |
| 2026-05-07 15:23 | 53.14180 | 1.34951 | 36087 ft | 482 kts | 280° |
| 2026-05-07 15:23 | 53.15461 | 1.23950 | 36097 ft | 483 kts | 279° |
| 2026-05-07 15:24 | 53.16721 | 1.13005 | 36095 ft | 483 kts | 279° |
| 2026-05-07 15:24 | 53.17982 | 1.01984 | 36083 ft | 483 kts | 279° |
| 2026-05-07 15:25 | 53.19233 | 0.90978 | 36088 ft | 484 kts | 279° |
| 2026-05-07 15:25 | 53.20470 | 0.79934 | 36073 ft | 482 kts | 279° |
| 2026-05-07 15:26 | 53.21701 | 0.68903 | 36072 ft | 483 kts | 279° |
| 2026-05-07 15:26 | 53.22915 | 0.57888 | 36069 ft | 483 kts | 279° |
| 2026-05-07 15:27 | 53.24122 | 0.46849 | 36079 ft | 482 kts | 279° |
| 2026-05-07 15:27 | 53.25319 | 0.35823 | 36073 ft | 482 kts | 279° |
| 2026-05-07 15:28 | 53.26306 | 0.26643 | 36073 ft | 482 kts | 279° |
| 2026-05-07 15:28 | 53.27484 | 0.15601 | 36064 ft | 482 kts | 278° |
| 2026-05-07 15:29 | 53.28648 | 0.04561 | 36063 ft | 482 kts | 278° |
| 2026-05-07 15:29 | 53.29805 | -0.06489 | 36055 ft | 482 kts | 278° |
| 2026-05-07 15:30 | 53.30951 | -0.17543 | 36051 ft | 482 kts | 278° |
| 2026-05-07 15:30 | 53.32090 | -0.28639 | 36052 ft | 482 kts | 278° |
| 2026-05-07 15:31 | 53.33214 | -0.39713 | 36050 ft | 482 kts | 278° |
| 2026-05-07 15:31 | 53.34329 | -0.50779 | 36050 ft | 482 kts | 278° |
| 2026-05-07 15:32 | 53.35426 | -0.61788 | 36049 ft | 482 kts | 278° |
| 2026-05-07 15:32 | 53.36521 | -0.72875 | 36050 ft | 482 kts | 278° |
| 2026-05-07 15:33 | 53.37605 | -0.83943 | 36048 ft | 482 kts | 277° |
| 2026-05-07 15:33 | 53.38678 | -0.95040 | 36047 ft | 482 kts | 277° |
| 2026-05-07 15:34 | 53.39743 | -1.06142 | 36054 ft | 481 kts | 277° |
| 2026-05-07 15:34 | 53.40797 | -1.17247 | 36052 ft | 481 kts | 277° |
| 2026-05-07 15:35 | 53.41839 | -1.28369 | 36044 ft | 481 kts | 277° |
| 2026-05-07 15:35 | 53.42865 | -1.39408 | 36043 ft | 481 kts | 277° |
| 2026-05-07 15:36 | 53.43887 | -1.50536 | 36040 ft | 481 kts | 277° |
| 2026-05-07 15:36 | 53.44900 | -1.61651 | 36044 ft | 481 kts | 277° |
| 2026-05-07 15:37 | 53.45900 | -1.72771 | 36038 ft | 481 kts | 276° |
| 2026-05-07 15:37 | 53.46889 | -1.83900 | 36042 ft | 481 kts | 276° |
| 2026-05-07 15:38 | 53.47863 | -1.94969 | 36044 ft | 481 kts | 276° |
| 2026-05-07 15:38 | 53.48835 | -2.06120 | 36035 ft | 481 kts | 276° |
| 2026-05-07 15:39 | 53.49795 | -2.17271 | 36037 ft | 480 kts | 276° |
| 2026-05-07 15:39 | 53.50741 | -2.28405 | 36029 ft | 480 kts | 276° |
| 2026-05-07 15:40 | 53.51676 | -2.39517 | 36029 ft | 480 kts | 276° |
| 2026-05-07 15:40 | 53.52603 | -2.50667 | 36026 ft | 480 kts | 276° |
| 2026-05-07 15:41 | 53.53513 | -2.61732 | 36032 ft | 480 kts | 275° |
| 2026-05-07 15:41 | 53.54418 | -2.72862 | 36021 ft | 479 kts | 275° |
| 2026-05-07 15:42 | 53.55312 | -2.84010 | 35996 ft | 479 kts | 275° |
| 2026-05-07 15:42 | 53.56189 | -2.95066 | 35993 ft | 479 kts | 275° |
| 2026-05-07 15:43 | 53.57060 | -3.06186 | 35993 ft | 479 kts | 275° |
| 2026-05-07 15:43 | 53.57922 | -3.17302 | 35997 ft | 478 kts | 275° |
| 2026-05-07 15:44 | 53.58770 | -3.28396 | 35996 ft | 477 kts | 275° |
| 2026-05-07 15:44 | 53.59608 | -3.39502 | 35997 ft | 477 kts | 275° |
| 2026-05-07 15:45 | 53.60436 | -3.50601 | 36001 ft | 477 kts | 275° |
| 2026-05-07 15:45 | 53.61252 | -3.61714 | 35998 ft | 477 kts | 274° |
| 2026-05-07 15:46 | 53.62104 | -3.78314 | 35995 ft | 474 kts | 271° |
| 2026-05-07 15:47 | 53.62549 | -3.89410 | 35993 ft | 474 kts | 271° |
| 2026-05-07 15:47 | 53.62993 | -4.00492 | 35990 ft | 473 kts | 271° |
| 2026-05-07 15:48 | 53.63429 | -4.11592 | 35990 ft | 473 kts | 271° |
| 2026-05-07 15:48 | 53.63855 | -4.22667 | 35988 ft | 472 kts | 271° |
| 2026-05-07 15:49 | 53.64266 | -4.33724 | 35987 ft | 472 kts | 271° |
| 2026-05-07 15:49 | 53.64667 | -4.44719 | 35985 ft | 472 kts | 271° |
| 2026-05-07 15:50 | 53.65061 | -4.55771 | 35989 ft | 471 kts | 270° |
| 2026-05-07 15:50 | 53.65445 | -4.66835 | 35981 ft | 472 kts | 270° |
| 2026-05-07 15:51 | 53.65816 | -4.77891 | 35980 ft | 470 kts | 270° |
| 2026-05-07 15:51 | 53.66176 | -4.88898 | 35977 ft | 469 kts | 270° |
| 2026-05-07 15:52 | 53.66531 | -4.99838 | 35977 ft | 469 kts | 270° |
| 2026-05-07 15:52 | 53.66876 | -5.10881 | 35974 ft | 469 kts | 270° |
| 2026-05-07 15:53 | 53.67208 | -5.21891 | 35990 ft | 469 kts | 270° |
| 2026-05-07 15:53 | 53.67523 | -5.32888 | 35973 ft | 467 kts | 270° |
| 2026-05-07 15:54 | 53.67858 | -5.43831 | 35968 ft | 467 kts | 271° |
| 2026-05-07 15:54 | 53.68679 | -5.54683 | 35968 ft | 470 kts | 277° |
| 2026-05-07 15:55 | 53.70062 | -5.65503 | 35965 ft | 471 kts | 279° |
| 2026-05-07 15:55 | 53.71526 | -5.76296 | 35963 ft | 471 kts | 279° |
| 2026-05-07 15:56 | 53.72976 | -5.87094 | 35952 ft | 470 kts | 279° |
| 2026-05-07 15:56 | 53.74403 | -5.97826 | 35952 ft | 470 kts | 279° |
| 2026-05-07 15:57 | 53.75831 | -6.08661 | 35939 ft | 470 kts | 279° |
| 2026-05-07 15:57 | 53.77245 | -6.19470 | 35941 ft | 470 kts | 279° |
| 2026-05-07 15:58 | 53.78650 | -6.30300 | 35945 ft | 470 kts | 279° |
| 2026-05-07 15:58 | 53.80039 | -6.41086 | 35937 ft | 468 kts | 279° |
| 2026-05-07 15:59 | 53.81409 | -6.51809 | 35928 ft | 468 kts | 279° |
| 2026-05-07 15:59 | 53.82780 | -6.62612 | 35930 ft | 468 kts | 278° |
| 2026-05-07 16:00 | 53.84138 | -6.73412 | 35922 ft | 468 kts | 278° |
| 2026-05-07 16:00 | 53.85478 | -6.84147 | 35938 ft | 467 kts | 278° |
| 2026-05-07 16:01 | 53.86812 | -6.94917 | 35916 ft | 465 kts | 278° |
| 2026-05-07 16:01 | 53.88134 | -7.05681 | 35915 ft | 465 kts | 278° |
| 2026-05-07 16:02 | 53.89446 | -7.16442 | 35911 ft | 465 kts | 278° |
| 2026-05-07 16:02 | 53.90740 | -7.27145 | 35913 ft | 465 kts | 278° |
| 2026-05-07 16:03 | 53.92036 | -7.37946 | 35924 ft | 465 kts | 278° |
| 2026-05-07 16:03 | 53.93315 | -7.48689 | 35906 ft | 463 kts | 278° |
| 2026-05-07 16:04 | 53.94583 | -7.59433 | 35915 ft | 463 kts | 278° |
| 2026-05-07 16:04 | 53.95835 | -7.70126 | 35915 ft | 463 kts | 278° |
| 2026-05-07 16:05 | 53.97083 | -7.80872 | 35918 ft | 463 kts | 278° |
| 2026-05-07 16:05 | 53.98321 | -7.91623 | 35929 ft | 463 kts | 278° |
| 2026-05-07 16:06 | 53.99547 | -8.02362 | 35914 ft | 461 kts | 278° |
| 2026-05-07 16:06 | 54.00760 | -8.13069 | 35911 ft | 461 kts | 277° |
| 2026-05-07 16:07 | 54.01964 | -8.23794 | 35910 ft | 461 kts | 277° |
| 2026-05-07 16:07 | 54.03159 | -8.34521 | 35910 ft | 461 kts | 277° |
| 2026-05-07 16:08 | 54.04337 | -8.45193 | 35902 ft | 461 kts | 277° |
| 2026-05-07 16:08 | 54.05508 | -8.55919 | 35914 ft | 459 kts | 277° |
| 2026-05-07 16:09 | 54.06673 | -8.66639 | 35913 ft | 459 kts | 277° |
| 2026-05-07 16:09 | 54.07827 | -8.77363 | 35911 ft | 459 kts | 277° |
| 2026-05-07 16:10 | 54.08970 | -8.88082 | 35905 ft | 459 kts | 277° |
| 2026-05-07 16:10 | 54.10095 | -8.98734 | 35908 ft | 459 kts | 277° |
| 2026-05-07 16:11 | 54.11219 | -9.09480 | 35915 ft | 458 kts | 277° |
| 2026-05-07 16:11 | 54.12330 | -9.20185 | 35912 ft | 458 kts | 277° |
| 2026-05-07 16:12 | 54.13433 | -9.30905 | 35907 ft | 458 kts | 277° |
| 2026-05-07 16:12 | 54.14521 | -9.41563 | 35921 ft | 458 kts | 277° |
| 2026-05-07 16:13 | 54.15604 | -9.52300 | 35917 ft | 458 kts | 277° |
| 2026-05-07 16:13 | 54.16679 | -9.63036 | 35923 ft | 458 kts | 276° |
| 2026-05-07 16:14 | 54.17743 | -9.73794 | 35915 ft | 458 kts | 276° |
| 2026-05-07 16:14 | 54.18790 | -9.84468 | 35923 ft | 458 kts | 276° |
| 2026-05-07 16:15 | 54.19834 | -9.95223 | 35924 ft | 458 kts | 276° |
| 2026-05-07 16:15 | 54.20868 | -10.05969 | 35921 ft | 458 kts | 276° |
| 2026-05-07 16:16 | 54.21895 | -10.16714 | 35937 ft | 458 kts | 275° |
| 2026-05-07 16:16 | 54.22919 | -10.27562 | 35923 ft | 458 kts | 275° |
| 2026-05-07 16:17 | 54.23916 | -10.38253 | 35920 ft | 458 kts | 275° |
| 2026-05-07 16:17 | 54.24913 | -10.49041 | 35923 ft | 458 kts | 275° |
| 2026-05-07 16:18 | 54.25740 | -10.58070 | 35922 ft | 458 kts | 275° |
| 2026-05-07 16:18 | 54.26713 | -10.68791 | 35926 ft | 458 kts | 275° |
| 2026-05-07 16:19 | 54.27685 | -10.79580 | 35929 ft | 458 kts | 275° |
| 2026-05-07 16:19 | 54.28648 | -10.90410 | 35922 ft | 458 kts | 274° |
| 2026-05-07 16:20 | 54.29596 | -11.01207 | 35919 ft | 457 kts | 274° |
| 2026-05-07 16:20 | 54.30535 | -11.11999 | 35920 ft | 457 kts | 274° |
| 2026-05-07 16:21 | 54.31464 | -11.22795 | 35923 ft | 457 kts | 274° |
| 2026-05-07 16:21 | 54.32383 | -11.33590 | 35919 ft | 457 kts | 274° |
| 2026-05-07 16:22 | 54.33287 | -11.44320 | 35922 ft | 457 kts | 274° |
| 2026-05-07 16:22 | 54.34187 | -11.55122 | 35921 ft | 457 kts | 274° |
| 2026-05-07 16:23 | 54.35078 | -11.65930 | 35922 ft | 457 kts | 274° |
| 2026-05-07 16:23 | 54.35960 | -11.76759 | 35921 ft | 457 kts | 274° |
| 2026-05-07 16:24 | 54.36832 | -11.87584 | 35936 ft | 457 kts | 274° |
| 2026-05-07 16:24 | 54.37694 | -11.98413 | 35923 ft | 457 kts | 274° |
| 2026-05-07 16:25 | 54.38543 | -12.09199 | 35921 ft | 457 kts | 274° |
| 2026-05-07 16:25 | 54.39386 | -12.20032 | 35944 ft | 457 kts | 273° |
| 2026-05-07 16:26 | 54.40218 | -12.30872 | 35928 ft | 457 kts | 273° |
| 2026-05-07 16:26 | 54.40687 | -12.41724 | 35934 ft | 453 kts | 267° |
| 2026-05-07 16:27 | 54.40434 | -12.52489 | 35932 ft | 449 kts | 261° |
| 2026-05-07 16:27 | 54.39486 | -12.63058 | 35930 ft | 447 kts | 255° |
| 2026-05-07 16:28 | 54.37964 | -12.73328 | 35934 ft | 446 kts | 252° |
| 2026-05-07 16:28 | 54.36349 | -12.83616 | 35935 ft | 446 kts | 252° |
| 2026-05-07 16:29 | 54.34724 | -12.93887 | 35939 ft | 445 kts | 252° |
| 2026-05-07 16:29 | 54.33093 | -13.04138 | 35936 ft | 445 kts | 252° |
| 2026-05-07 16:30 | 54.31457 | -13.14371 | 35940 ft | 445 kts | 252° |
| 2026-05-07 16:30 | 54.29820 | -13.24540 | 35940 ft | 444 kts | 252° |
| 2026-05-07 16:31 | 54.28165 | -13.34760 | 35944 ft | 444 kts | 252° |
| 2026-05-07 16:31 | 54.26498 | -13.44969 | 35950 ft | 444 kts | 252° |
| 2026-05-07 16:32 | 54.24827 | -13.55167 | 35946 ft | 444 kts | 252° |
| 2026-05-07 16:32 | 54.23149 | -13.65347 | 35924 ft | 444 kts | 252° |
| 2026-05-07 16:33 | 54.21471 | -13.75463 | 35945 ft | 444 kts | 252° |
| 2026-05-07 16:33 | 54.19772 | -13.85645 | 35951 ft | 444 kts | 252° |
| 2026-05-07 16:34 | 54.18064 | -13.95806 | 35963 ft | 444 kts | 252° |
| 2026-05-07 16:34 | 54.16351 | -14.05957 | 35960 ft | 444 kts | 252° |
| 2026-05-07 16:35 | 54.14629 | -14.16100 | 35961 ft | 444 kts | 252° |
| 2026-05-07 16:35 | 54.12910 | -14.26168 | 35966 ft | 444 kts | 252° |
| 2026-05-07 16:36 | 54.11171 | -14.36292 | 35963 ft | 444 kts | 252° |
| 2026-05-07 16:36 | 54.09421 | -14.46410 | 35963 ft | 445 kts | 252° |
| 2026-05-07 16:37 | 54.07662 | -14.56538 | 35972 ft | 445 kts | 252° |
| 2026-05-07 16:37 | 54.05891 | -14.66681 | 35968 ft | 445 kts | 252° |
| 2026-05-07 16:38 | 54.04116 | -14.76781 | 35973 ft | 445 kts | 252° |
| 2026-05-07 16:38 | 54.02373 | -14.86903 | 35972 ft | 445 kts | 254° |
| 2026-05-07 16:39 | 54.01091 | -14.97175 | 35984 ft | 447 kts | 259° |
| 2026-05-07 16:39 | 54.00399 | -15.07725 | 35981 ft | 448 kts | 265° |
| 2026-05-07 16:40 | 54.00319 | -15.18367 | 35985 ft | 450 kts | 269° |
| 2026-05-07 16:40 | 54.00513 | -15.29006 | 35987 ft | 450 kts | 270° |
| 2026-05-07 16:41 | 54.00704 | -15.39587 | 35990 ft | 449 kts | 270° |
| 2026-05-07 16:41 | 54.00884 | -15.50299 | 36007 ft | 450 kts | 270° |
| 2026-05-07 16:42 | 54.01057 | -15.60883 | 35994 ft | 450 kts | 270° |
| 2026-05-07 16:42 | 54.01223 | -15.71525 | 35991 ft | 450 kts | 270° |
| 2026-05-07 16:43 | 54.01378 | -15.82172 | 36005 ft | 450 kts | 270° |
| 2026-05-07 16:43 | 54.01523 | -15.92818 | 36002 ft | 450 kts | 270° |
| 2026-05-07 16:44 | 54.01657 | -16.03487 | 36005 ft | 452 kts | 270° |
| 2026-05-07 16:44 | 54.01784 | -16.14210 | 36002 ft | 454 kts | 270° |
| 2026-05-07 16:45 | 54.01902 | -16.24957 | 36001 ft | 454 kts | 270° |
| 2026-05-07 16:45 | 54.02010 | -16.35714 | 36002 ft | 454 kts | 270° |
| 2026-05-07 16:46 | 54.02108 | -16.46415 | 36007 ft | 454 kts | 269° |
| 2026-05-07 16:46 | 54.02197 | -16.57159 | 36006 ft | 454 kts | 269° |
| 2026-05-07 16:47 | 54.02277 | -16.67939 | 36013 ft | 454 kts | 269° |
| 2026-05-07 16:47 | 54.02346 | -16.78633 | 36011 ft | 454 kts | 269° |
| 2026-05-07 16:48 | 54.02406 | -16.89396 | 36017 ft | 454 kts | 269° |
| 2026-05-07 16:48 | 54.02456 | -17.00156 | 36017 ft | 454 kts | 269° |
| 2026-05-07 16:49 | 54.02497 | -17.10919 | 36021 ft | 454 kts | 269° |
| 2026-05-07 16:49 | 54.02526 | -17.21686 | 36021 ft | 455 kts | 269° |
| 2026-05-07 16:50 | 54.02547 | -17.32473 | 36033 ft | 456 kts | 269° |
| 2026-05-07 16:50 | 54.02561 | -17.43273 | 36029 ft | 456 kts | 269° |
| 2026-05-07 16:51 | 54.02564 | -17.54076 | 36032 ft | 456 kts | 269° |
| 2026-05-07 16:51 | 54.02557 | -17.64876 | 36030 ft | 456 kts | 269° |
| 2026-05-07 16:52 | 54.02538 | -17.75604 | 36032 ft | 456 kts | 269° |
| 2026-05-07 16:52 | 54.02512 | -17.86430 | 36031 ft | 456 kts | 269° |
| 2026-05-07 16:53 | 54.02476 | -17.97241 | 36034 ft | 456 kts | 269° |
| 2026-05-07 16:53 | 54.02430 | -18.08076 | 36039 ft | 456 kts | 269° |
| 2026-05-07 16:54 | 54.02375 | -18.18874 | 36039 ft | 456 kts | 269° |
| 2026-05-07 16:54 | 54.02307 | -18.29687 | 36044 ft | 457 kts | 269° |
| 2026-05-07 16:55 | 54.02233 | -18.40516 | 36046 ft | 457 kts | 269° |
| 2026-05-07 16:55 | 54.02149 | -18.51334 | 36048 ft | 457 kts | 269° |
| 2026-05-07 16:56 | 54.02055 | -18.62086 | 36051 ft | 457 kts | 269° |
| 2026-05-07 16:56 | 54.01894 | -18.78310 | 36049 ft | 457 kts | 269° |
| 2026-05-07 16:57 | 54.01774 | -18.89136 | 36056 ft | 457 kts | 269° |
| 2026-05-07 16:57 | 54.01646 | -18.99984 | 36073 ft | 458 kts | 269° |
| 2026-05-07 16:58 | 54.01507 | -19.10823 | 36066 ft | 458 kts | 269° |
| 2026-05-07 16:58 | 54.01360 | -19.21600 | 36064 ft | 458 kts | 269° |
| 2026-05-07 16:59 | 54.01201 | -19.32455 | 36067 ft | 458 kts | 269° |
| 2026-05-07 16:59 | 54.01032 | -19.43316 | 36071 ft | 459 kts | 269° |
| 2026-05-07 17:00 | 54.00855 | -19.54178 | 36076 ft | 458 kts | 269° |
| 2026-05-07 17:00 | 54.00668 | -19.65040 | 36077 ft | 458 kts | 269° |
| 2026-05-07 17:01 | 54.00472 | -19.75813 | 36081 ft | 459 kts | 268° |
| 2026-05-07 17:01 | 54.00264 | -19.86681 | 36068 ft | 459 kts | 269° |
| 2026-05-07 17:02 | 54.00043 | -19.97531 | 36080 ft | 459 kts | 268° |
| 2026-05-07 17:02 | 53.99518 | -20.08397 | 36086 ft | 459 kts | 265° |
| 2026-05-07 17:03 | 53.98892 | -20.19238 | 36088 ft | 459 kts | 265° |
| 2026-05-07 17:03 | 53.98261 | -20.29977 | 36089 ft | 459 kts | 265° |
| 2026-05-07 17:04 | 53.97615 | -20.40805 | 36084 ft | 460 kts | 265° |
| 2026-05-07 17:04 | 53.96959 | -20.51631 | 36094 ft | 460 kts | 265° |
| 2026-05-07 17:05 | 53.96294 | -20.62472 | 36096 ft | 460 kts | 265° |
| 2026-05-07 17:05 | 53.95621 | -20.73293 | 36096 ft | 460 kts | 265° |
| 2026-05-07 17:06 | 53.94936 | -20.84120 | 36102 ft | 460 kts | 265° |
| 2026-05-07 17:06 | 53.94240 | -20.94956 | 36106 ft | 461 kts | 265° |
| 2026-05-07 17:07 | 53.93537 | -21.05727 | 36111 ft | 462 kts | 265° |
| 2026-05-07 17:07 | 53.92822 | -21.16604 | 36110 ft | 462 kts | 265° |
| 2026-05-07 17:08 | 53.92096 | -21.27458 | 36113 ft | 462 kts | 265° |
| 2026-05-07 17:08 | 53.91361 | -21.38309 | 36113 ft | 462 kts | 265° |
| 2026-05-07 17:09 | 53.90617 | -21.49106 | 36100 ft | 462 kts | 265° |
| 2026-05-07 17:09 | 53.89860 | -21.59952 | 36112 ft | 463 kts | 265° |
| 2026-05-07 17:10 | 53.89224 | -21.68986 | 36119 ft | 463 kts | 265° |
| 2026-05-07 17:10 | 53.88450 | -21.79847 | 36117 ft | 463 kts | 265° |
| 2026-05-07 17:11 | 53.87666 | -21.90695 | 36124 ft | 463 kts | 265° |
| 2026-05-07 17:11 | 53.86871 | -22.01548 | 36124 ft | 463 kts | 265° |
| 2026-05-07 17:12 | 53.86065 | -22.12411 | 36127 ft | 463 kts | 264° |
| 2026-05-07 17:12 | 53.85257 | -22.23175 | 36126 ft | 463 kts | 264° |
| 2026-05-07 17:13 | 53.84432 | -22.34023 | 36129 ft | 463 kts | 264° |
| 2026-05-07 17:13 | 53.83598 | -22.44859 | 36129 ft | 463 kts | 264° |
| 2026-05-07 17:14 | 53.82753 | -22.55690 | 36121 ft | 463 kts | 264° |
| 2026-05-07 17:14 | 53.81897 | -22.66532 | 36132 ft | 464 kts | 264° |
| 2026-05-07 17:15 | 53.81034 | -22.77365 | 36143 ft | 464 kts | 264° |
| 2026-05-07 17:15 | 53.80160 | -22.88206 | 36135 ft | 464 kts | 264° |
| 2026-05-07 17:16 | 53.79277 | -22.99034 | 36148 ft | 464 kts | 264° |
| 2026-05-07 17:16 | 53.78387 | -23.09789 | 36136 ft | 464 kts | 264° |
| 2026-05-07 17:17 | 53.77481 | -23.20630 | 36146 ft | 464 kts | 264° |
| 2026-05-07 17:17 | 53.76568 | -23.31467 | 36147 ft | 465 kts | 264° |
| 2026-05-07 17:18 | 53.75643 | -23.42307 | 36146 ft | 465 kts | 264° |
| 2026-05-07 17:18 | 53.74714 | -23.53072 | 36149 ft | 465 kts | 264° |
| 2026-05-07 17:19 | 53.73768 | -23.63881 | 36141 ft | 465 kts | 264° |
| 2026-05-07 17:19 | 53.72815 | -23.74699 | 36152 ft | 465 kts | 264° |
| 2026-05-07 17:20 | 53.71852 | -23.85518 | 36159 ft | 465 kts | 264° |
| 2026-05-07 17:20 | 53.70880 | -23.96321 | 36159 ft | 465 kts | 264° |
| 2026-05-07 17:21 | 53.69897 | -24.07127 | 36162 ft | 465 kts | 264° |
| 2026-05-07 17:21 | 53.68899 | -24.17930 | 36152 ft | 465 kts | 265° |
| 2026-05-07 17:22 | 53.67905 | -24.28643 | 36167 ft | 465 kts | 264° |
| 2026-05-07 17:22 | 53.66895 | -24.39428 | 36167 ft | 465 kts | 264° |
| 2026-05-07 17:23 | 53.65874 | -24.50213 | 36170 ft | 465 kts | 264° |
| 2026-05-07 17:23 | 53.64841 | -24.61010 | 36170 ft | 465 kts | 264° |
| 2026-05-07 17:24 | 53.63796 | -24.71779 | 36165 ft | 465 kts | 265° |
| 2026-05-07 17:24 | 53.62746 | -24.82552 | 36171 ft | 465 kts | 265° |
| 2026-05-07 17:25 | 53.61684 | -24.93337 | 36177 ft | 465 kts | 264° |
| 2026-05-07 17:25 | 53.60622 | -25.04023 | 36175 ft | 465 kts | 264° |
| 2026-05-07 17:26 | 53.59541 | -25.14789 | 36147 ft | 465 kts | 264° |
| 2026-05-07 17:26 | 53.58446 | -25.25549 | 36172 ft | 465 kts | 265° |
| 2026-05-07 17:27 | 53.57346 | -25.36316 | 36182 ft | 465 kts | 264° |
| 2026-05-07 17:27 | 53.56236 | -25.47058 | 36194 ft | 466 kts | 264° |
| 2026-05-07 17:28 | 53.55116 | -25.57814 | 36191 ft | 466 kts | 264° |
| 2026-05-07 17:28 | 53.53985 | -25.68555 | 36163 ft | 466 kts | 265° |
| 2026-05-07 17:29 | 53.52851 | -25.79208 | 36188 ft | 465 kts | 265° |
| 2026-05-07 17:29 | 53.51703 | -25.89950 | 36192 ft | 465 kts | 265° |
| 2026-05-07 17:30 | 53.50547 | -26.00659 | 36193 ft | 465 kts | 265° |
| 2026-05-07 17:30 | 53.49381 | -26.11367 | 36194 ft | 465 kts | 265° |
| 2026-05-07 17:31 | 53.48201 | -26.22075 | 36173 ft | 465 kts | 265° |
| 2026-05-07 17:31 | 53.47021 | -26.32699 | 36200 ft | 464 kts | 265° |
| 2026-05-07 17:32 | 53.45829 | -26.43374 | 36204 ft | 464 kts | 265° |
| 2026-05-07 17:32 | 53.44627 | -26.54038 | 36205 ft | 464 kts | 265° |
| 2026-05-07 17:33 | 53.43414 | -26.64704 | 36205 ft | 464 kts | 265° |
| 2026-05-07 17:33 | 53.42186 | -26.75359 | 36179 ft | 463 kts | 265° |
| 2026-05-07 17:34 | 53.40964 | -26.85918 | 36198 ft | 462 kts | 265° |
| 2026-05-07 17:34 | 53.39729 | -26.96545 | 36197 ft | 462 kts | 265° |
| 2026-05-07 17:35 | 53.38484 | -27.07140 | 36204 ft | 462 kts | 265° |
| 2026-05-07 17:35 | 53.37231 | -27.17721 | 36207 ft | 462 kts | 265° |
| 2026-05-07 17:36 | 53.35964 | -27.28326 | 36213 ft | 463 kts | 265° |
| 2026-05-07 17:36 | 53.34690 | -27.38902 | 36211 ft | 463 kts | 265° |
| 2026-05-07 17:37 | 53.33413 | -27.49414 | 36219 ft | 463 kts | 265° |
| 2026-05-07 17:37 | 53.32120 | -27.59981 | 36218 ft | 463 kts | 265° |
| 2026-05-07 17:38 | 53.30816 | -27.70544 | 36214 ft | 462 kts | 265° |
| 2026-05-07 17:38 | 53.29499 | -27.81074 | 36209 ft | 460 kts | 265° |
| 2026-05-07 17:39 | 53.28197 | -27.91497 | 36216 ft | 459 kts | 265° |
| 2026-05-07 17:39 | 53.26882 | -28.01953 | 36226 ft | 459 kts | 265° |
| 2026-05-07 17:40 | 53.25556 | -28.12398 | 36233 ft | 459 kts | 265° |
| 2026-05-07 17:40 | 53.24218 | -28.22850 | 36233 ft | 459 kts | 265° |
| 2026-05-07 17:41 | 53.22864 | -28.33264 | 36221 ft | 457 kts | 266° |
| 2026-05-07 17:41 | 53.21517 | -28.43662 | 36238 ft | 457 kts | 266° |
| 2026-05-07 17:42 | 53.20159 | -28.54061 | 36238 ft | 458 kts | 266° |
| 2026-05-07 17:42 | 53.18789 | -28.64455 | 36238 ft | 458 kts | 266° |
| 2026-05-07 17:43 | 53.17419 | -28.74770 | 36193 ft | 458 kts | 266° |
| 2026-05-07 17:43 | 53.16024 | -28.85149 | 36235 ft | 457 kts | 266° |
| 2026-05-07 17:44 | 53.14631 | -28.95518 | 36249 ft | 458 kts | 266° |
| 2026-05-07 17:44 | 53.13226 | -29.05885 | 36251 ft | 458 kts | 266° |
| 2026-05-07 17:45 | 53.11812 | -29.16233 | 36259 ft | 458 kts | 266° |
| 2026-05-07 17:45 | 53.10386 | -29.26584 | 36220 ft | 457 kts | 266° |
| 2026-05-07 17:46 | 53.08955 | -29.36887 | 36259 ft | 456 kts | 266° |
| 2026-05-07 17:46 | 53.07521 | -29.47183 | 36265 ft | 456 kts | 266° |
| 2026-05-07 17:47 | 53.06086 | -29.57405 | 36260 ft | 456 kts | 266° |
| 2026-05-07 17:47 | 53.04630 | -29.67704 | 36262 ft | 456 kts | 266° |
| 2026-05-07 17:48 | 53.03165 | -29.77982 | 36230 ft | 454 kts | 266° |
| 2026-05-07 17:48 | 53.01705 | -29.88145 | 36260 ft | 450 kts | 266° |
| 2026-05-07 17:49 | 53.00255 | -29.98268 | 36268 ft | 448 kts | 267° |
| 2026-05-07 17:49 | 52.99126 | -30.08354 | 36267 ft | 445 kts | 270° |
| 2026-05-07 17:50 | 52.98063 | -30.18483 | 36268 ft | 445 kts | 270° |
| 2026-05-07 17:50 | 52.96992 | -30.28619 | 36245 ft | 444 kts | 269° |
| 2026-05-07 17:51 | 52.95916 | -30.38700 | 36267 ft | 443 kts | 269° |
| 2026-05-07 17:51 | 52.94833 | -30.48766 | 36276 ft | 443 kts | 269° |
| 2026-05-07 17:52 | 52.93740 | -30.58838 | 36279 ft | 443 kts | 269° |
| 2026-05-07 17:52 | 52.92645 | -30.68848 | 36279 ft | 443 kts | 269° |
| 2026-05-07 17:53 | 52.91535 | -30.78921 | 36245 ft | 443 kts | 269° |
| 2026-05-07 17:53 | 52.90415 | -30.89005 | 36275 ft | 445 kts | 269° |
| 2026-05-07 17:54 | 52.89284 | -30.99096 | 36288 ft | 445 kts | 269° |
| 2026-05-07 17:54 | 52.88142 | -31.09193 | 36289 ft | 445 kts | 269° |
| 2026-05-07 17:55 | 52.86991 | -31.19291 | 36292 ft | 445 kts | 269° |
| 2026-05-07 17:55 | 52.85834 | -31.29374 | 36247 ft | 445 kts | 268° |
| 2026-05-07 17:56 | 52.84672 | -31.39437 | 36281 ft | 448 kts | 268° |
| 2026-05-07 17:56 | 52.83490 | -31.49573 | 36286 ft | 448 kts | 268° |
| 2026-05-07 17:57 | 52.82501 | -31.57979 | 36288 ft | 448 kts | 268° |
| 2026-05-07 17:57 | 52.81099 | -31.69815 | 36295 ft | 448 kts | 268° |
| 2026-05-07 17:58 | 52.80095 | -31.78232 | 36300 ft | 448 kts | 268° |
| 2026-05-07 17:58 | 52.78879 | -31.88342 | 36291 ft | 447 kts | 268° |
| 2026-05-07 17:59 | 52.77657 | -31.98436 | 36304 ft | 447 kts | 268° |
| 2026-05-07 17:59 | 52.76427 | -32.08525 | 36300 ft | 447 kts | 268° |
| 2026-05-07 18:00 | 52.75195 | -32.18550 | 36299 ft | 447 kts | 268° |
| 2026-05-07 18:00 | 52.73947 | -32.28631 | 36311 ft | 447 kts | 268° |
| 2026-05-07 18:01 | 52.72691 | -32.38711 | 36312 ft | 447 kts | 268° |
| 2026-05-07 18:01 | 52.71427 | -32.48775 | 36309 ft | 448 kts | 268° |
| 2026-05-07 18:02 | 52.69511 | -32.63882 | 36314 ft | 448 kts | 267° |
| 2026-05-07 18:03 | 52.68223 | -32.73950 | 36303 ft | 448 kts | 267° |
| 2026-05-07 18:03 | 52.66935 | -32.83947 | 36274 ft | 448 kts | 267° |
| 2026-05-07 18:04 | 52.65631 | -32.93984 | 36296 ft | 447 kts | 267° |
| 2026-05-07 18:04 | 52.64319 | -33.04025 | 36307 ft | 446 kts | 267° |
| 2026-05-07 18:05 | 52.63004 | -33.14010 | 36311 ft | 444 kts | 267° |
| 2026-05-07 18:05 | 52.61693 | -33.23905 | 36314 ft | 444 kts | 267° |
| 2026-05-07 18:06 | 52.60357 | -33.33922 | 36270 ft | 444 kts | 267° |
| 2026-05-07 18:06 | 52.59030 | -33.43793 | 36312 ft | 444 kts | 267° |
| 2026-05-07 18:07 | 52.57686 | -33.53731 | 36309 ft | 444 kts | 267° |
| 2026-05-07 18:07 | 52.56335 | -33.63649 | 36310 ft | 444 kts | 267° |
| 2026-05-07 18:08 | 52.54975 | -33.73565 | 36316 ft | 444 kts | 266° |
| 2026-05-07 18:08 | 52.53607 | -33.83478 | 36267 ft | 444 kts | 266° |
| 2026-05-07 18:09 | 52.52230 | -33.93400 | 36303 ft | 444 kts | 266° |
| 2026-05-07 18:09 | 52.50847 | -34.03282 | 36315 ft | 444 kts | 266° |
| 2026-05-07 18:10 | 52.49452 | -34.13183 | 36314 ft | 444 kts | 266° |
| 2026-05-07 18:10 | 52.48060 | -34.23000 | 36311 ft | 444 kts | 266° |
| 2026-05-07 18:11 | 52.46648 | -34.32896 | 36315 ft | 444 kts | 266° |
| 2026-05-07 18:11 | 52.45233 | -34.42775 | 36307 ft | 444 kts | 265° |
| 2026-05-07 18:12 | 52.43806 | -34.52639 | 36314 ft | 444 kts | 265° |
| 2026-05-07 18:12 | 52.42371 | -34.62505 | 36310 ft | 444 kts | 265° |
| 2026-05-07 18:13 | 52.40931 | -34.72340 | 36316 ft | 443 kts | 265° |
| 2026-05-07 18:13 | 52.39482 | -34.82170 | 36318 ft | 443 kts | 265° |
| 2026-05-07 18:14 | 52.38036 | -34.91942 | 36304 ft | 443 kts | 265° |
| 2026-05-07 18:14 | 52.36568 | -35.01777 | 36314 ft | 443 kts | 265° |
| 2026-05-07 18:15 | 52.35095 | -35.11589 | 36316 ft | 443 kts | 264° |
| 2026-05-07 18:15 | 52.33611 | -35.21412 | 36322 ft | 443 kts | 264° |
| 2026-05-07 18:16 | 52.32121 | -35.31219 | 36307 ft | 444 kts | 264° |
| 2026-05-07 18:16 | 52.30634 | -35.40970 | 36305 ft | 445 kts | 264° |
| 2026-05-07 18:17 | 52.29122 | -35.50797 | 36313 ft | 445 kts | 264° |
| 2026-05-07 18:17 | 52.27595 | -35.60654 | 36318 ft | 445 kts | 264° |
| 2026-05-07 18:18 | 52.26076 | -35.70409 | 36319 ft | 445 kts | 264° |
| 2026-05-07 18:18 | 52.24539 | -35.80222 | 36319 ft | 445 kts | 264° |
| 2026-05-07 18:19 | 52.22995 | -35.90045 | 36303 ft | 446 kts | 263° |
| 2026-05-07 18:19 | 52.21444 | -35.99825 | 36314 ft | 447 kts | 263° |
| 2026-05-07 18:20 | 52.19878 | -36.09640 | 36317 ft | 447 kts | 263° |
| 2026-05-07 18:20 | 52.18306 | -36.19449 | 36315 ft | 445 kts | 263° |
| 2026-05-07 18:21 | 52.16727 | -36.29227 | 36318 ft | 445 kts | 263° |
| 2026-05-07 18:21 | 52.15145 | -36.38998 | 36315 ft | 446 kts | 262° |
| 2026-05-07 18:22 | 52.13548 | -36.48780 | 36317 ft | 447 kts | 262° |
| 2026-05-07 18:22 | 52.11941 | -36.58566 | 36315 ft | 447 kts | 262° |
| 2026-05-07 18:23 | 52.10332 | -36.68304 | 36313 ft | 447 kts | 262° |
| 2026-05-07 18:23 | 52.08711 | -36.78070 | 36321 ft | 447 kts | 262° |
| 2026-05-07 18:24 | 52.07081 | -36.87850 | 36296 ft | 447 kts | 262° |
| 2026-05-07 18:24 | 52.05447 | -36.97577 | 36309 ft | 448 kts | 262° |
| 2026-05-07 18:25 | 52.03795 | -37.07353 | 36317 ft | 448 kts | 262° |
| 2026-05-07 18:25 | 52.02134 | -37.17132 | 36315 ft | 448 kts | 262° |
| 2026-05-07 18:26 | 52.00466 | -37.26896 | 36313 ft | 448 kts | 261° |
| 2026-05-07 18:26 | 51.98802 | -37.36588 | 36313 ft | 448 kts | 261° |
| 2026-05-07 18:27 | 51.97116 | -37.46352 | 36311 ft | 448 kts | 261° |
| 2026-05-07 18:27 | 51.95423 | -37.56102 | 36311 ft | 448 kts | 261° |
| 2026-05-07 18:28 | 51.93734 | -37.65778 | 36305 ft | 448 kts | 261° |
| 2026-05-07 18:28 | 51.92034 | -37.75465 | 36310 ft | 446 kts | 261° |
| 2026-05-07 18:29 | 51.90328 | -37.85147 | 36301 ft | 447 kts | 261° |
| 2026-05-07 18:29 | 51.88597 | -37.94895 | 36307 ft | 447 kts | 260° |
| 2026-05-07 18:30 | 51.86880 | -38.04513 | 36308 ft | 447 kts | 260° |
| 2026-05-07 18:30 | 51.85144 | -38.14184 | 36311 ft | 447 kts | 260° |
| 2026-05-07 18:31 | 51.83400 | -38.23856 | 36308 ft | 447 kts | 260° |
| 2026-05-07 18:31 | 51.81649 | -38.33535 | 36298 ft | 448 kts | 260° |
| 2026-05-07 18:32 | 51.79884 | -38.43210 | 36304 ft | 448 kts | 259° |
| 2026-05-07 18:32 | 51.78110 | -38.52887 | 36304 ft | 448 kts | 259° |
| 2026-05-07 18:33 | 51.76344 | -38.62475 | 36307 ft | 448 kts | 259° |
| 2026-05-07 18:33 | 51.74557 | -38.72125 | 36305 ft | 448 kts | 259° |
| 2026-05-07 18:34 | 51.72760 | -38.81803 | 36295 ft | 450 kts | 259° |
| 2026-05-07 18:34 | 51.70947 | -38.91490 | 36298 ft | 450 kts | 259° |
| 2026-05-07 18:35 | 51.69127 | -39.01159 | 36304 ft | 450 kts | 259° |
| 2026-05-07 18:35 | 51.67300 | -39.10824 | 36299 ft | 450 kts | 259° |
| 2026-05-07 18:36 | 51.65470 | -39.20466 | 36271 ft | 449 kts | 258° |
| 2026-05-07 18:36 | 51.63643 | -39.30046 | 36296 ft | 451 kts | 258° |
| 2026-05-07 18:37 | 51.61789 | -39.39695 | 36293 ft | 451 kts | 258° |
| 2026-05-07 18:37 | 51.59926 | -39.49344 | 36295 ft | 451 kts | 258° |
| 2026-05-07 18:38 | 51.58056 | -39.58986 | 36293 ft | 451 kts | 258° |
| 2026-05-07 18:38 | 51.56180 | -39.68616 | 36267 ft | 451 kts | 257° |
| 2026-05-07 18:39 | 51.54289 | -39.78287 | 36286 ft | 453 kts | 257° |
| 2026-05-07 18:39 | 51.52379 | -39.87971 | 36290 ft | 454 kts | 257° |
| 2026-05-07 18:40 | 51.50535 | -39.97658 | 36286 ft | 452 kts | 260° |
| 2026-05-07 18:40 | 51.49213 | -40.07497 | 36288 ft | 449 kts | 265° |
| 2026-05-07 18:41 | 51.48177 | -40.17391 | 36265 ft | 449 kts | 265° |
| 2026-05-07 18:41 | 51.47137 | -40.27313 | 36279 ft | 451 kts | 264° |
| 2026-05-07 18:42 | 51.46085 | -40.37194 | 36281 ft | 451 kts | 264° |
| 2026-05-07 18:42 | 51.45021 | -40.47121 | 36282 ft | 451 kts | 264° |
| 2026-05-07 18:43 | 51.43946 | -40.57065 | 36279 ft | 451 kts | 264° |
| 2026-05-07 18:43 | 51.42864 | -40.66997 | 36280 ft | 451 kts | 264° |
| 2026-05-07 18:44 | 51.41775 | -40.76944 | 36269 ft | 453 kts | 264° |
| 2026-05-07 18:44 | 51.40669 | -40.86922 | 36264 ft | 454 kts | 263° |
| 2026-05-07 18:45 | 51.39741 | -40.95223 | 36274 ft | 454 kts | 263° |
| 2026-05-07 18:45 | 51.38437 | -41.06811 | 36266 ft | 454 kts | 263° |
| 2026-05-07 18:46 | 51.37490 | -41.15159 | 36269 ft | 454 kts | 263° |
| 2026-05-07 18:46 | 51.36362 | -41.25058 | 36255 ft | 455 kts | 263° |
| 2026-05-07 18:47 | 51.35214 | -41.35042 | 36266 ft | 455 kts | 263° |
| 2026-05-07 18:47 | 51.34057 | -41.45020 | 36270 ft | 454 kts | 262° |
| 2026-05-07 18:48 | 51.32891 | -41.54972 | 36271 ft | 454 kts | 262° |
| 2026-05-07 18:48 | 51.31727 | -41.64845 | 36271 ft | 454 kts | 262° |
| 2026-05-07 18:49 | 51.30548 | -41.74773 | 36273 ft | 454 kts | 262° |
| 2026-05-07 18:49 | 51.29361 | -41.84713 | 36262 ft | 455 kts | 262° |
| 2026-05-07 18:50 | 51.28161 | -41.94659 | 36263 ft | 455 kts | 262° |
| 2026-05-07 18:50 | 51.26953 | -42.04596 | 36265 ft | 455 kts | 262° |
| 2026-05-07 18:51 | 51.25736 | -42.14534 | 36265 ft | 455 kts | 262° |
| 2026-05-07 18:51 | 51.24511 | -42.24476 | 36265 ft | 455 kts | 262° |
| 2026-05-07 18:52 | 51.23287 | -42.34328 | 36265 ft | 455 kts | 262° |
| 2026-05-07 18:52 | 51.22049 | -42.44248 | 36267 ft | 453 kts | 261° |
| 2026-05-07 18:53 | 51.20806 | -42.54104 | 36266 ft | 452 kts | 261° |
| 2026-05-07 18:53 | 51.19552 | -42.63979 | 36262 ft | 452 kts | 261° |
| 2026-05-07 18:54 | 51.18294 | -42.73817 | 36262 ft | 452 kts | 261° |
| 2026-05-07 18:54 | 51.17038 | -42.83592 | 36252 ft | 453 kts | 261° |
| 2026-05-07 18:55 | 51.15759 | -42.93455 | 36258 ft | 454 kts | 260° |
| 2026-05-07 18:55 | 51.14469 | -43.03326 | 36257 ft | 454 kts | 260° |
| 2026-05-07 18:56 | 51.13175 | -43.13165 | 36257 ft | 454 kts | 260° |
| 2026-05-07 18:56 | 51.11871 | -43.23015 | 36257 ft | 454 kts | 260° |
| 2026-05-07 18:57 | 51.10560 | -43.32852 | 36243 ft | 454 kts | 260° |
| 2026-05-07 18:57 | 51.09253 | -43.42628 | 36250 ft | 453 kts | 259° |
| 2026-05-07 18:58 | 51.07927 | -43.52424 | 36251 ft | 452 kts | 259° |
| 2026-05-07 18:58 | 51.06593 | -43.62216 | 36251 ft | 452 kts | 259° |
| 2026-05-07 18:59 | 51.05250 | -43.72019 | 36251 ft | 452 kts | 259° |
| 2026-05-07 18:59 | 51.03901 | -43.81798 | 36251 ft | 452 kts | 259° |
| 2026-05-07 19:00 | 51.02546 | -43.91582 | 36247 ft | 453 kts | 259° |
| 2026-05-07 19:00 | 51.01178 | -44.01363 | 36251 ft | 453 kts | 259° |
| 2026-05-07 19:01 | 50.99813 | -44.11066 | 36254 ft | 453 kts | 258° |
| 2026-05-07 19:01 | 50.98427 | -44.20862 | 36249 ft | 453 kts | 258° |
| 2026-05-07 19:02 | 50.97035 | -44.30627 | 36249 ft | 453 kts | 258° |
| 2026-05-07 19:02 | 50.95641 | -44.40375 | 36246 ft | 451 kts | 258° |
| 2026-05-07 19:03 | 50.94248 | -44.50025 | 36248 ft | 451 kts | 258° |
| 2026-05-07 19:03 | 50.92836 | -44.59738 | 36249 ft | 451 kts | 258° |
| 2026-05-07 19:04 | 50.91418 | -44.69438 | 36249 ft | 451 kts | 258° |
| 2026-05-07 19:04 | 50.89992 | -44.79138 | 36249 ft | 451 kts | 258° |
| 2026-05-07 19:05 | 50.88560 | -44.88823 | 36242 ft | 451 kts | 257° |
| 2026-05-07 19:05 | 50.87117 | -44.98519 | 36245 ft | 452 kts | 257° |
| 2026-05-07 19:06 | 50.85664 | -45.08214 | 36246 ft | 452 kts | 257° |
| 2026-05-07 19:06 | 50.83480 | -45.22681 | 36246 ft | 452 kts | 257° |
| 2026-05-07 19:07 | 50.82010 | -45.32353 | 36252 ft | 449 kts | 257° |
| 2026-05-07 19:07 | 50.80542 | -45.41958 | 36243 ft | 448 kts | 257° |
| 2026-05-07 19:08 | 50.79067 | -45.51534 | 36245 ft | 448 kts | 257° |
| 2026-05-07 19:08 | 50.77582 | -45.61120 | 36246 ft | 448 kts | 257° |
| 2026-05-07 19:09 | 50.76101 | -45.70629 | 36247 ft | 448 kts | 256° |
| 2026-05-07 19:09 | 50.74602 | -45.80192 | 36246 ft | 448 kts | 256° |
| 2026-05-07 19:10 | 50.73097 | -45.89752 | 36241 ft | 448 kts | 256° |
| 2026-05-07 19:10 | 50.71582 | -45.99314 | 36243 ft | 448 kts | 256° |
| 2026-05-07 19:11 | 50.70060 | -46.08852 | 36238 ft | 448 kts | 256° |
| 2026-05-07 19:11 | 50.68530 | -46.18394 | 36238 ft | 448 kts | 256° |
| 2026-05-07 19:12 | 50.66997 | -46.27917 | 36247 ft | 446 kts | 256° |
| 2026-05-07 19:12 | 50.65461 | -46.37387 | 36239 ft | 445 kts | 255° |
| 2026-05-07 19:13 | 50.63930 | -46.46777 | 36236 ft | 444 kts | 255° |
| 2026-05-07 19:13 | 50.62380 | -46.56213 | 36238 ft | 444 kts | 255° |
| 2026-05-07 19:14 | 50.60824 | -46.65643 | 36238 ft | 444 kts | 255° |
| 2026-05-07 19:14 | 50.59260 | -46.75067 | 36238 ft | 444 kts | 255° |
| 2026-05-07 19:15 | 50.57692 | -46.84474 | 36235 ft | 444 kts | 255° |
| 2026-05-07 19:15 | 50.56117 | -46.93877 | 36231 ft | 444 kts | 255° |
| 2026-05-07 19:16 | 50.54532 | -47.03276 | 36232 ft | 443 kts | 254° |
| 2026-05-07 19:16 | 50.52941 | -47.12658 | 36232 ft | 443 kts | 254° |
| 2026-05-07 19:17 | 50.51357 | -47.21973 | 36233 ft | 441 kts | 253° |
| 2026-05-07 19:17 | 50.49760 | -47.31289 | 36231 ft | 440 kts | 253° |
| 2026-05-07 19:18 | 50.48156 | -47.40589 | 36231 ft | 439 kts | 253° |
| 2026-05-07 19:18 | 50.46562 | -47.49789 | 36230 ft | 439 kts | 253° |
| 2026-05-07 19:19 | 50.44937 | -47.59124 | 36223 ft | 439 kts | 253° |
| 2026-05-07 19:19 | 50.43325 | -47.68332 | 36218 ft | 439 kts | 253° |
| 2026-05-07 19:20 | 50.41697 | -47.77589 | 36219 ft | 439 kts | 253° |
| 2026-05-07 19:20 | 50.40060 | -47.86847 | 36218 ft | 440 kts | 253° |
| 2026-05-07 19:21 | 50.38418 | -47.96098 | 36219 ft | 440 kts | 253° |
| 2026-05-07 19:21 | 50.36765 | -48.05342 | 36219 ft | 440 kts | 253° |
| 2026-05-07 19:22 | 50.35114 | -48.14561 | 36229 ft | 437 kts | 252° |
| 2026-05-07 19:22 | 50.33473 | -48.23648 | 36221 ft | 436 kts | 252° |
| 2026-05-07 19:23 | 50.31814 | -48.32783 | 36208 ft | 435 kts | 252° |
| 2026-05-07 19:23 | 50.30152 | -48.41904 | 36209 ft | 435 kts | 252° |
| 2026-05-07 19:24 | 50.28481 | -48.51016 | 36208 ft | 435 kts | 251° |
| 2026-05-07 19:24 | 50.26802 | -48.60129 | 36208 ft | 435 kts | 251° |
| 2026-05-07 19:25 | 50.25116 | -48.69241 | 36199 ft | 435 kts | 251° |
| 2026-05-07 19:25 | 50.23433 | -48.78291 | 36197 ft | 435 kts | 251° |
| 2026-05-07 19:26 | 50.21734 | -48.87393 | 36194 ft | 436 kts | 251° |
| 2026-05-07 19:26 | 50.20022 | -48.96507 | 36197 ft | 436 kts | 251° |
| 2026-05-07 19:27 | 50.18320 | -49.05536 | 36200 ft | 434 kts | 251° |
| 2026-05-07 19:27 | 50.16605 | -49.14580 | 36188 ft | 433 kts | 251° |
| 2026-05-07 19:28 | 50.14884 | -49.23608 | 36181 ft | 433 kts | 251° |
| 2026-05-07 19:28 | 50.13168 | -49.32572 | 36179 ft | 433 kts | 251° |
| 2026-05-07 19:29 | 50.11435 | -49.41587 | 36173 ft | 433 kts | 250° |
| 2026-05-07 19:29 | 50.09692 | -49.50601 | 36172 ft | 434 kts | 250° |
| 2026-05-07 19:30 | 50.07953 | -49.59558 | 36172 ft | 433 kts | 250° |
| 2026-05-07 19:30 | 50.06198 | -49.68555 | 36169 ft | 433 kts | 250° |
| 2026-05-07 19:31 | 50.04437 | -49.77541 | 36163 ft | 434 kts | 250° |
| 2026-05-07 19:31 | 50.02670 | -49.86521 | 36156 ft | 434 kts | 250° |
| 2026-05-07 19:32 | 50.00885 | -49.95532 | 36157 ft | 435 kts | 250° |
| 2026-05-07 19:32 | 49.98935 | -50.04413 | 36154 ft | 433 kts | 247° |
| 2026-05-07 19:33 | 49.96829 | -50.13205 | 36147 ft | 433 kts | 247° |
| 2026-05-07 19:33 | 49.94729 | -50.21937 | 36142 ft | 433 kts | 247° |
| 2026-05-07 19:34 | 49.92608 | -50.30719 | 36145 ft | 434 kts | 246° |
| 2026-05-07 19:34 | 49.90475 | -50.39509 | 36130 ft | 434 kts | 246° |
| 2026-05-07 19:35 | 49.88335 | -50.48286 | 36132 ft | 434 kts | 246° |
| 2026-05-07 19:35 | 49.86554 | -50.55569 | 36137 ft | 434 kts | 246° |
| 2026-05-07 19:36 | 49.84403 | -50.64331 | 36127 ft | 434 kts | 246° |
| 2026-05-07 19:36 | 49.82245 | -50.73089 | 36121 ft | 435 kts | 246° |
| 2026-05-07 19:37 | 49.80078 | -50.81848 | 36132 ft | 435 kts | 246° |
| 2026-05-07 19:37 | 49.77903 | -50.90611 | 36124 ft | 434 kts | 246° |
| 2026-05-07 19:38 | 49.75734 | -50.99314 | 36113 ft | 432 kts | 245° |
| 2026-05-07 19:38 | 49.73557 | -51.07998 | 36105 ft | 432 kts | 245° |
| 2026-05-07 19:39 | 49.71378 | -51.16667 | 36113 ft | 432 kts | 245° |
| 2026-05-07 19:39 | 49.69207 | -51.25270 | 36098 ft | 432 kts | 245° |
| 2026-05-07 19:40 | 49.67014 | -51.33927 | 36087 ft | 432 kts | 245° |
| 2026-05-07 19:40 | 49.64817 | -51.42565 | 36088 ft | 432 kts | 245° |
| 2026-05-07 19:41 | 49.62614 | -51.51195 | 36084 ft | 432 kts | 245° |
| 2026-05-07 19:41 | 49.60404 | -51.59825 | 36080 ft | 432 kts | 245° |
| 2026-05-07 19:42 | 49.58183 | -51.68457 | 36075 ft | 432 kts | 245° |
| 2026-05-07 19:42 | 49.55956 | -51.77083 | 36074 ft | 433 kts | 245° |
| 2026-05-07 19:43 | 49.53721 | -51.85709 | 36070 ft | 433 kts | 245° |
| 2026-05-07 19:43 | 49.51497 | -51.94254 | 36076 ft | 432 kts | 245° |
| 2026-05-07 19:44 | 49.49270 | -52.02864 | 36070 ft | 432 kts | 246° |
| 2026-05-07 19:44 | 49.47133 | -52.11532 | 36054 ft | 432 kts | 246° |
| 2026-05-07 19:45 | 49.44993 | -52.20205 | 36050 ft | 432 kts | 246° |
| 2026-05-07 19:45 | 49.42845 | -52.28849 | 36050 ft | 432 kts | 246° |
| 2026-05-07 19:46 | 49.40703 | -52.37430 | 36050 ft | 432 kts | 246° |
| 2026-05-07 19:46 | 49.38540 | -52.46054 | 36042 ft | 432 kts | 246° |
| 2026-05-07 19:47 | 49.36366 | -52.54678 | 36043 ft | 432 kts | 246° |
| 2026-05-07 19:47 | 49.34188 | -52.63296 | 36042 ft | 432 kts | 246° |
| 2026-05-07 19:48 | 49.32005 | -52.71901 | 36039 ft | 432 kts | 246° |
| 2026-05-07 19:48 | 49.29815 | -52.80496 | 36039 ft | 432 kts | 246° |
| 2026-05-07 19:49 | 49.27633 | -52.89036 | 36035 ft | 428 kts | 245° |
| 2026-05-07 19:49 | 49.25450 | -52.97511 | 36028 ft | 426 kts | 246° |
| 2026-05-07 19:50 | 49.23281 | -53.05952 | 36018 ft | 425 kts | 246° |
| 2026-05-07 19:50 | 49.21121 | -53.14322 | 36017 ft | 425 kts | 246° |
| 2026-05-07 19:51 | 49.18934 | -53.22755 | 36001 ft | 425 kts | 246° |
| 2026-05-07 19:51 | 49.16744 | -53.31163 | 36000 ft | 425 kts | 246° |
| 2026-05-07 19:52 | 49.14532 | -53.39581 | 35999 ft | 425 kts | 248° |
| 2026-05-07 19:52 | 49.12342 | -53.47936 | 35994 ft | 425 kts | 248° |
| 2026-05-07 19:53 | 49.10133 | -53.56332 | 35991 ft | 425 kts | 248° |
| 2026-05-07 19:53 | 49.07915 | -53.64727 | 35994 ft | 425 kts | 248° |
| 2026-05-07 19:54 | 49.05695 | -53.73099 | 36018 ft | 425 kts | 247° |
| 2026-05-07 19:54 | 49.03502 | -53.81355 | 35990 ft | 421 kts | 247° |
| 2026-05-07 19:55 | 49.01288 | -53.89631 | 35989 ft | 420 kts | 246° |
| 2026-05-07 19:55 | 48.99072 | -53.97888 | 35993 ft | 420 kts | 246° |
| 2026-05-07 19:56 | 48.96851 | -54.06138 | 35990 ft | 420 kts | 246° |
| 2026-05-07 19:56 | 48.94626 | -54.14377 | 35987 ft | 420 kts | 246° |
| 2026-05-07 19:57 | 48.92391 | -54.22611 | 35985 ft | 421 kts | 247° |
| 2026-05-07 19:57 | 48.90146 | -54.30864 | 35980 ft | 422 kts | 247° |
| 2026-05-07 19:58 | 48.87911 | -54.39059 | 35979 ft | 422 kts | 247° |
| 2026-05-07 19:58 | 48.85653 | -54.47308 | 35972 ft | 422 kts | 246° |
| 2026-05-07 19:59 | 48.83390 | -54.55541 | 35971 ft | 422 kts | 246° |
| 2026-05-07 19:59 | 48.81122 | -54.63770 | 35988 ft | 420 kts | 246° |
| 2026-05-07 20:00 | 48.78870 | -54.71915 | 35972 ft | 417 kts | 246° |
| 2026-05-07 20:00 | 48.76613 | -54.80035 | 35967 ft | 417 kts | 246° |
| 2026-05-07 20:01 | 48.74353 | -54.88142 | 35959 ft | 417 kts | 246° |
| 2026-05-07 20:01 | 48.72086 | -54.96246 | 35954 ft | 417 kts | 246° |
| 2026-05-07 20:02 | 48.69829 | -55.04290 | 35932 ft | 417 kts | 246° |
| 2026-05-07 20:02 | 48.67553 | -55.12382 | 35936 ft | 417 kts | 245° |
| 2026-05-07 20:03 | 48.65269 | -55.20465 | 35938 ft | 417 kts | 245° |
| 2026-05-07 20:03 | 48.62982 | -55.28527 | 35929 ft | 417 kts | 245° |
| 2026-05-07 20:04 | 48.60689 | -55.36591 | 35923 ft | 417 kts | 245° |
| 2026-05-07 20:04 | 48.58398 | -55.44619 | 35917 ft | 417 kts | 245° |
| 2026-05-07 20:05 | 48.56099 | -55.52669 | 35935 ft | 418 kts | 244° |
| 2026-05-07 20:05 | 48.53779 | -55.60738 | 35913 ft | 418 kts | 244° |
| 2026-05-07 20:06 | 48.51452 | -55.68805 | 35905 ft | 418 kts | 244° |
| 2026-05-07 20:06 | 48.49121 | -55.76859 | 35895 ft | 418 kts | 244° |
| 2026-05-07 20:07 | 48.46786 | -55.84904 | 35896 ft | 418 kts | 244° |
| 2026-05-07 20:07 | 48.44442 | -55.92953 | 35889 ft | 419 kts | 244° |
| 2026-05-07 20:08 | 48.42094 | -56.00990 | 35887 ft | 419 kts | 244° |
| 2026-05-07 20:08 | 48.39738 | -56.09034 | 35888 ft | 419 kts | 244° |
| 2026-05-07 20:09 | 48.37331 | -56.16971 | 35869 ft | 417 kts | 238° |
| 2026-05-07 20:10 | 48.32076 | -56.27376 | 35880 ft | 417 kts | 232° |
| 2026-05-07 20:10 | 48.28563 | -56.34338 | 35878 ft | 417 kts | 232° |
| 2026-05-07 20:11 | 48.25059 | -56.41291 | 35873 ft | 417 kts | 232° |
| 2026-05-07 20:11 | 48.21572 | -56.48207 | 35873 ft | 417 kts | 232° |
| 2026-05-07 20:12 | 48.18079 | -56.55148 | 35879 ft | 416 kts | 232° |
| 2026-05-07 20:12 | 48.14599 | -56.62082 | 35869 ft | 416 kts | 232° |
| 2026-05-07 20:13 | 48.11117 | -56.69007 | 35881 ft | 416 kts | 232° |
| 2026-05-07 20:13 | 48.07635 | -56.75931 | 35881 ft | 416 kts | 232° |
| 2026-05-07 20:14 | 48.04175 | -56.82808 | 35885 ft | 416 kts | 232° |
| 2026-05-07 20:14 | 48.00690 | -56.89726 | 35883 ft | 416 kts | 232° |
| 2026-05-07 20:15 | 47.97192 | -56.96627 | 35886 ft | 416 kts | 232° |
| 2026-05-07 20:15 | 47.93696 | -57.03519 | 35891 ft | 416 kts | 232° |
| 2026-05-07 20:16 | 47.90222 | -57.10362 | 35899 ft | 415 kts | 232° |
| 2026-05-07 20:16 | 47.86730 | -57.17235 | 35895 ft | 415 kts | 233° |
| 2026-05-07 20:17 | 47.83218 | -57.24073 | 35894 ft | 414 kts | 232° |
| 2026-05-07 20:17 | 47.79706 | -57.30873 | 35895 ft | 413 kts | 232° |
| 2026-05-07 20:18 | 47.76219 | -57.37617 | 35897 ft | 413 kts | 232° |
| 2026-05-07 20:18 | 47.72711 | -57.44397 | 35894 ft | 413 kts | 232° |
| 2026-05-07 20:19 | 47.69215 | -57.51149 | 35899 ft | 409 kts | 232° |
| 2026-05-07 20:19 | 47.65745 | -57.57842 | 35893 ft | 408 kts | 232° |
| 2026-05-07 20:20 | 47.62283 | -57.64516 | 35889 ft | 408 kts | 232° |
| 2026-05-07 20:20 | 47.58818 | -57.71185 | 35887 ft | 408 kts | 232° |
| 2026-05-07 20:21 | 47.55355 | -57.77849 | 35894 ft | 406 kts | 232° |
| 2026-05-07 20:21 | 47.51951 | -57.84474 | 35883 ft | 403 kts | 232° |
| 2026-05-07 20:22 | 47.48566 | -57.91081 | 35874 ft | 402 kts | 232° |
| 2026-05-07 20:22 | 47.45186 | -57.97673 | 35874 ft | 402 kts | 232° |
| 2026-05-07 20:23 | 47.42608 | -58.03411 | 35878 ft | 408 kts | 240° |
| 2026-05-07 20:23 | 47.39772 | -58.12179 | 35870 ft | 405 kts | 243° |
| 2026-05-07 20:24 | 47.37799 | -58.18514 | 35856 ft | 404 kts | 243° |
| 2026-05-07 20:24 | 47.35472 | -58.26008 | 35854 ft | 404 kts | 243° |
| 2026-05-07 20:25 | 47.33132 | -58.33547 | 35848 ft | 404 kts | 243° |
| 2026-05-07 20:25 | 47.30789 | -58.41094 | 35850 ft | 404 kts | 243° |
| 2026-05-07 20:26 | 47.28562 | -58.48707 | 35803 ft | 407 kts | 251° |
| 2026-05-07 20:26 | 47.28098 | -58.52842 | 35821 ft | 413 kts | 263° |
| 2026-05-07 20:26 | 47.28312 | -58.57111 | 35837 ft | 423 kts | 274° |
| 2026-05-07 20:27 | 47.30099 | -58.65418 | 35827 ft | 428 kts | 282° |
| 2026-05-07 20:27 | 47.32214 | -58.73669 | 35834 ft | 431 kts | 283° |
| 2026-05-07 20:28 | 47.34352 | -58.81954 | 35812 ft | 432 kts | 283° |
| 2026-05-07 20:28 | 47.36491 | -58.90235 | 35809 ft | 432 kts | 283° |
| 2026-05-07 20:29 | 47.38631 | -58.98528 | 35799 ft | 432 kts | 283° |
| 2026-05-07 20:29 | 47.40771 | -59.06819 | 35795 ft | 432 kts | 283° |
| 2026-05-07 20:30 | 47.42911 | -59.15115 | 35781 ft | 432 kts | 283° |
| 2026-05-07 20:30 | 47.43754 | -59.19313 | 35737 ft | 416 kts | 270° |
| 2026-05-07 20:30 | 47.43991 | -59.23560 | 35782 ft | 415 kts | 268° |
| 2026-05-07 20:31 | 47.43900 | -59.31932 | 35767 ft | 405 kts | 257° |
| 2026-05-07 20:31 | 47.42356 | -59.39843 | 35768 ft | 398 kts | 243° |
| 2026-05-07 20:32 | 47.39946 | -59.47248 | 35763 ft | 400 kts | 242° |
| 2026-05-07 20:32 | 47.37462 | -59.54626 | 35757 ft | 402 kts | 241° |
| 2026-05-07 20:33 | 47.34956 | -59.61948 | 35737 ft | 401 kts | 241° |
| 2026-05-07 20:33 | 47.32423 | -59.69294 | 35734 ft | 401 kts | 241° |
| 2026-05-07 20:34 | 47.29885 | -59.76621 | 35734 ft | 401 kts | 241° |
| 2026-05-07 20:34 | 47.27332 | -59.83960 | 35727 ft | 401 kts | 240° |
| 2026-05-07 20:35 | 47.24793 | -59.91236 | 35710 ft | 401 kts | 240° |
| 2026-05-07 20:35 | 47.22243 | -59.98517 | 35701 ft | 398 kts | 241° |
| 2026-05-07 20:36 | 47.19707 | -60.05746 | 35700 ft | 397 kts | 241° |
| 2026-05-07 20:36 | 47.17163 | -60.12975 | 35702 ft | 397 kts | 241° |
| 2026-05-07 20:37 | 47.14613 | -60.20202 | 35683 ft | 397 kts | 240° |
| 2026-05-07 20:37 | 47.12059 | -60.27419 | 35677 ft | 397 kts | 240° |
| 2026-05-07 20:38 | 47.09513 | -60.34598 | 35720 ft | 398 kts | 240° |
| 2026-05-07 20:38 | 47.06947 | -60.41812 | 35681 ft | 398 kts | 240° |
| 2026-05-07 20:39 | 47.04366 | -60.49042 | 35663 ft | 398 kts | 240° |
| 2026-05-07 20:39 | 47.01805 | -60.56201 | 35663 ft | 399 kts | 240° |
| 2026-05-07 20:40 | 46.99218 | -60.63410 | 35654 ft | 398 kts | 240° |
| 2026-05-07 20:40 | 46.96638 | -60.70583 | 35663 ft | 397 kts | 240° |
| 2026-05-07 20:41 | 46.94056 | -60.77741 | 35657 ft | 396 kts | 240° |
| 2026-05-07 20:41 | 46.91477 | -60.84873 | 35658 ft | 396 kts | 240° |
| 2026-05-07 20:42 | 46.88894 | -60.91996 | 35660 ft | 396 kts | 240° |
| 2026-05-07 20:42 | 46.86325 | -60.99060 | 35656 ft | 396 kts | 240° |
| 2026-05-07 20:43 | 46.83736 | -61.06149 | 35652 ft | 394 kts | 240° |
| 2026-05-07 20:43 | 46.81159 | -61.13202 | 35697 ft | 393 kts | 240° |
| 2026-05-07 20:44 | 46.78567 | -61.20280 | 35660 ft | 395 kts | 240° |
| 2026-05-07 20:44 | 46.75967 | -61.27359 | 35646 ft | 395 kts | 240° |
| 2026-05-07 20:45 | 46.73363 | -61.34427 | 35647 ft | 395 kts | 240° |
| 2026-05-07 20:45 | 46.70773 | -61.41436 | 35648 ft | 393 kts | 240° |
| 2026-05-07 20:46 | 46.68174 | -61.48454 | 35651 ft | 392 kts | 240° |
| 2026-05-07 20:46 | 46.65579 | -61.55443 | 35646 ft | 392 kts | 240° |
| 2026-05-07 20:47 | 46.62979 | -61.62430 | 35646 ft | 392 kts | 240° |
| 2026-05-07 20:47 | 46.60373 | -61.69412 | 35644 ft | 392 kts | 240° |
| 2026-05-07 20:48 | 46.57765 | -61.76375 | 35637 ft | 390 kts | 240° |
| 2026-05-07 20:48 | 46.55194 | -61.83225 | 35639 ft | 387 kts | 241° |
| 2026-05-07 20:49 | 46.52616 | -61.90084 | 35692 ft | 387 kts | 240° |
| 2026-05-07 20:49 | 46.50007 | -61.97008 | 35653 ft | 391 kts | 240° |
| 2026-05-07 20:50 | 46.47381 | -62.03954 | 35637 ft | 391 kts | 240° |
| 2026-05-07 20:50 | 46.44755 | -62.10878 | 35653 ft | 390 kts | 240° |
| 2026-05-07 20:51 | 46.42163 | -62.17695 | 35636 ft | 387 kts | 240° |
| 2026-05-07 20:51 | 46.39562 | -62.24525 | 35654 ft | 386 kts | 240° |
| 2026-05-07 20:52 | 46.36959 | -62.31343 | 35641 ft | 386 kts | 240° |
| 2026-05-07 20:52 | 46.34346 | -62.38167 | 35653 ft | 386 kts | 240° |
| 2026-05-07 20:53 | 46.31736 | -62.44966 | 35635 ft | 386 kts | 240° |
| 2026-05-07 20:53 | 46.29134 | -62.51722 | 35632 ft | 382 kts | 241° |
| 2026-05-07 20:54 | 46.26546 | -62.58433 | 35647 ft | 381 kts | 241° |
| 2026-05-07 20:54 | 46.23958 | -62.65129 | 35695 ft | 381 kts | 240° |
| 2026-05-07 20:55 | 46.21359 | -62.71840 | 35659 ft | 386 kts | 240° |
| 2026-05-07 20:55 | 46.18724 | -62.78619 | 35651 ft | 386 kts | 240° |
| 2026-05-07 20:56 | 46.16100 | -62.85347 | 35651 ft | 382 kts | 240° |
| 2026-05-07 20:56 | 46.13494 | -62.92021 | 35656 ft | 381 kts | 240° |
| 2026-05-07 20:57 | 46.10885 | -62.98688 | 35658 ft | 381 kts | 240° |
| 2026-05-07 20:57 | 46.08276 | -63.05336 | 35658 ft | 381 kts | 240° |
| 2026-05-07 20:58 | 46.05659 | -63.11991 | 35660 ft | 381 kts | 240° |
| 2026-05-07 20:58 | 46.03065 | -63.18562 | 35646 ft | 376 kts | 241° |
| 2026-05-07 20:59 | 46.00484 | -63.25093 | 35655 ft | 375 kts | 241° |
| 2026-05-07 20:59 | 45.97901 | -63.31615 | 35658 ft | 374 kts | 240° |
| 2026-05-07 21:00 | 45.95314 | -63.38132 | 35656 ft | 374 kts | 240° |
| 2026-05-07 21:00 | 45.92712 | -63.44676 | 35676 ft | 380 kts | 240° |
| 2026-05-07 21:01 | 45.90096 | -63.51226 | 35653 ft | 378 kts | 240° |
| 2026-05-07 21:01 | 45.87482 | -63.57758 | 35650 ft | 376 kts | 240° |
| 2026-05-07 21:02 | 45.84867 | -63.64281 | 35651 ft | 376 kts | 240° |
| 2026-05-07 21:02 | 45.82251 | -63.70791 | 35651 ft | 375 kts | 240° |
| 2026-05-07 21:03 | 45.79652 | -63.77243 | 35652 ft | 375 kts | 240° |
| 2026-05-07 21:03 | 45.77031 | -63.83734 | 35648 ft | 375 kts | 240° |
| 2026-05-07 21:04 | 45.74409 | -63.90216 | 35647 ft | 375 kts | 240° |
| 2026-05-07 21:04 | 45.71780 | -63.96695 | 35649 ft | 375 kts | 240° |
| 2026-05-07 21:05 | 45.69155 | -64.03152 | 35652 ft | 375 kts | 240° |
| 2026-05-07 21:05 | 45.66520 | -64.09617 | 35654 ft | 375 kts | 240° |
| 2026-05-07 21:06 | 45.63892 | -64.16056 | 35639 ft | 380 kts | 240° |
| 2026-05-07 21:06 | 45.61234 | -64.22541 | 35658 ft | 376 kts | 240° |
| 2026-05-07 21:07 | 45.58588 | -64.28989 | 35661 ft | 376 kts | 240° |
| 2026-05-07 21:07 | 45.55938 | -64.35431 | 35663 ft | 376 kts | 240° |
| 2026-05-07 21:08 | 45.53285 | -64.41867 | 35681 ft | 376 kts | 240° |
| 2026-05-07 21:08 | 45.50624 | -64.48306 | 35686 ft | 376 kts | 240° |
| 2026-05-07 21:09 | 45.47979 | -64.54688 | 35674 ft | 372 kts | 240° |
| 2026-05-07 21:09 | 45.45362 | -64.60996 | 35684 ft | 371 kts | 240° |
| 2026-05-07 21:10 | 45.42720 | -64.67344 | 35686 ft | 371 kts | 240° |
| 2026-05-07 21:10 | 45.40080 | -64.73677 | 35692 ft | 371 kts | 240° |
| 2026-05-07 21:11 | 45.37437 | -64.80000 | 35693 ft | 371 kts | 240° |
| 2026-05-07 21:11 | 45.33910 | -64.88418 | 35700 ft | 373 kts | 240° |
| 2026-05-07 21:12 | 45.30812 | -64.95790 | 35701 ft | 373 kts | 240° |
| 2026-05-07 21:12 | 45.28144 | -65.02123 | 35687 ft | 373 kts | 239° |
| 2026-05-07 21:13 | 45.25925 | -65.07380 | 35701 ft | 373 kts | 239° |
| 2026-05-07 21:13 | 45.23246 | -65.13713 | 35688 ft | 373 kts | 239° |
| 2026-05-07 21:14 | 45.20145 | -65.21026 | 35689 ft | 371 kts | 239° |
| 2026-05-07 21:14 | 45.17926 | -65.26248 | 35694 ft | 371 kts | 239° |
| 2026-05-07 21:15 | 45.15254 | -65.32522 | 35699 ft | 371 kts | 239° |
| 2026-05-07 21:15 | 45.12582 | -65.38783 | 35696 ft | 371 kts | 239° |
| 2026-05-07 21:16 | 45.09908 | -65.45036 | 35698 ft | 371 kts | 239° |
| 2026-05-07 21:16 | 45.07248 | -65.51237 | 35680 ft | 365 kts | 239° |
| 2026-05-07 21:17 | 45.04599 | -65.57408 | 35704 ft | 370 kts | 239° |
| 2026-05-07 21:17 | 45.01929 | -65.63610 | 35695 ft | 371 kts | 239° |
| 2026-05-07 21:18 | 44.99232 | -65.69859 | 35696 ft | 372 kts | 239° |
| 2026-05-07 21:18 | 44.96536 | -65.76092 | 35702 ft | 372 kts | 239° |
| 2026-05-07 21:19 | 44.93846 | -65.82297 | 35691 ft | 366 kts | 239° |
| 2026-05-07 21:19 | 44.91183 | -65.88429 | 35701 ft | 365 kts | 239° |
| 2026-05-07 21:20 | 44.88525 | -65.94536 | 35701 ft | 365 kts | 239° |
| 2026-05-07 21:20 | 44.85870 | -66.00622 | 35695 ft | 365 kts | 239° |
| 2026-05-07 21:21 | 44.83220 | -66.06684 | 35707 ft | 365 kts | 239° |
| 2026-05-07 21:21 | 44.80553 | -66.12770 | 35679 ft | 361 kts | 239° |
| 2026-05-07 21:22 | 44.77919 | -66.18771 | 35696 ft | 359 kts | 239° |
| 2026-05-07 21:22 | 44.75281 | -66.24767 | 35701 ft | 359 kts | 239° |
| 2026-05-07 21:23 | 44.72647 | -66.30742 | 35705 ft | 359 kts | 239° |
| 2026-05-07 21:23 | 44.70021 | -66.36687 | 35705 ft | 359 kts | 239° |
| 2026-05-07 21:24 | 44.67378 | -66.42656 | 35698 ft | 358 kts | 239° |
| 2026-05-07 21:24 | 44.64751 | -66.48578 | 35707 ft | 358 kts | 239° |
| 2026-05-07 21:25 | 44.62111 | -66.54517 | 35708 ft | 358 kts | 239° |
| 2026-05-07 21:25 | 44.59465 | -66.60456 | 35708 ft | 358 kts | 239° |
| 2026-05-07 21:26 | 44.56823 | -66.66375 | 35708 ft | 358 kts | 239° |
| 2026-05-07 21:26 | 44.54171 | -66.72301 | 35705 ft | 358 kts | 239° |
| 2026-05-07 21:27 | 44.51540 | -66.78172 | 35712 ft | 354 kts | 239° |
| 2026-05-07 21:27 | 44.48934 | -66.83970 | 35711 ft | 353 kts | 239° |
| 2026-05-07 21:28 | 44.46305 | -66.89821 | 35740 ft | 358 kts | 239° |
| 2026-05-07 21:28 | 44.43840 | -66.95933 | 35721 ft | 360 kts | 242° |
| 2026-05-07 21:29 | 44.41708 | -67.02292 | 35716 ft | 361 kts | 245° |
| 2026-05-07 21:29 | 44.39926 | -67.08872 | 35717 ft | 362 kts | 249° |
| 2026-05-07 21:30 | 44.38458 | -67.15623 | 35718 ft | 361 kts | 250° |
| 2026-05-07 21:30 | 44.37021 | -67.22368 | 35718 ft | 361 kts | 250° |
| 2026-05-07 21:31 | 44.35592 | -67.29109 | 35721 ft | 361 kts | 250° |
| 2026-05-07 21:31 | 44.34171 | -67.35820 | 35722 ft | 361 kts | 250° |
| 2026-05-07 21:32 | 44.32741 | -67.42570 | 35757 ft | 363 kts | 250° |
| 2026-05-07 21:32 | 44.31287 | -67.49411 | 36021 ft | 368 kts | 250° |
| 2026-05-07 21:33 | 44.30559 | -67.52836 | 36354 ft | 367 kts | 250° |
| 2026-05-07 21:33 | 44.29832 | -67.56256 | 36649 ft | 367 kts | 250° |
| 2026-05-07 21:33 | 44.29103 | -67.59673 | 36909 ft | 368 kts | 250° |
| 2026-05-07 21:33 | 44.28370 | -67.63105 | 37131 ft | 369 kts | 250° |
| 2026-05-07 21:34 | 44.27634 | -67.66546 | 37350 ft | 370 kts | 250° |
| 2026-05-07 21:34 | 44.26896 | -67.69991 | 37564 ft | 371 kts | 250° |
| 2026-05-07 21:34 | 44.26154 | -67.73451 | 37724 ft | 372 kts | 251° |
| 2026-05-07 21:34 | 44.25410 | -67.76916 | 37716 ft | 372 kts | 251° |
| 2026-05-07 21:35 | 44.23916 | -67.83855 | 37725 ft | 372 kts | 250° |
| 2026-05-07 21:35 | 44.22418 | -67.90788 | 37768 ft | 374 kts | 251° |
| 2026-05-07 21:36 | 44.20912 | -67.97731 | 37733 ft | 377 kts | 251° |
| 2026-05-07 21:36 | 44.19395 | -68.04720 | 37715 ft | 374 kts | 250° |
| 2026-05-07 21:37 | 44.17883 | -68.11648 | 37733 ft | 373 kts | 250° |
| 2026-05-07 21:37 | 44.16368 | -68.18566 | 37733 ft | 373 kts | 250° |
| 2026-05-07 21:38 | 44.14847 | -68.25485 | 37737 ft | 372 kts | 250° |
| 2026-05-07 21:38 | 44.13333 | -68.32354 | 37730 ft | 372 kts | 250° |
| 2026-05-07 21:39 | 44.11803 | -68.39274 | 37771 ft | 374 kts | 250° |
| 2026-05-07 21:39 | 44.10257 | -68.46233 | 37742 ft | 378 kts | 250° |
| 2026-05-07 21:40 | 44.08718 | -68.53163 | 37730 ft | 375 kts | 250° |
| 2026-05-07 21:40 | 44.07171 | -68.60092 | 37738 ft | 374 kts | 250° |
| 2026-05-07 21:41 | 44.05618 | -68.67025 | 37739 ft | 374 kts | 250° |
| 2026-05-07 21:41 | 44.04064 | -68.73936 | 37736 ft | 374 kts | 250° |
| 2026-05-07 21:42 | 44.02504 | -68.80855 | 37737 ft | 374 kts | 250° |
| 2026-05-07 21:42 | 44.00940 | -68.87767 | 37761 ft | 376 kts | 250° |
| 2026-05-07 21:43 | 43.99362 | -68.94717 | 37738 ft | 380 kts | 250° |
| 2026-05-07 21:43 | 43.97775 | -69.01704 | 37722 ft | 378 kts | 250° |
| 2026-05-07 21:44 | 43.96185 | -69.08667 | 37729 ft | 377 kts | 250° |
| 2026-05-07 21:44 | 43.94592 | -69.15621 | 37727 ft | 377 kts | 250° |
| 2026-05-07 21:45 | 43.93003 | -69.22535 | 37734 ft | 377 kts | 250° |
| 2026-05-07 21:45 | 43.91403 | -69.29472 | 37738 ft | 377 kts | 250° |
| 2026-05-07 21:46 | 43.89795 | -69.36418 | 37768 ft | 380 kts | 250° |
| 2026-05-07 21:46 | 43.88163 | -69.43451 | 37718 ft | 383 kts | 250° |
| 2026-05-07 21:47 | 43.86533 | -69.50466 | 37740 ft | 381 kts | 250° |
| 2026-05-07 21:47 | 43.84900 | -69.57460 | 37740 ft | 381 kts | 250° |
| 2026-05-07 21:48 | 43.83265 | -69.64441 | 37742 ft | 381 kts | 249° |
| 2026-05-07 21:48 | 43.81634 | -69.71380 | 37742 ft | 381 kts | 249° |
| 2026-05-07 21:49 | 43.79978 | -69.78410 | 37763 ft | 381 kts | 249° |
| 2026-05-07 21:49 | 43.78333 | -69.85357 | 37785 ft | 383 kts | 250° |
| 2026-05-07 21:50 | 43.76665 | -69.92397 | 37760 ft | 384 kts | 249° |
| 2026-05-07 21:50 | 43.74994 | -69.99422 | 37763 ft | 384 kts | 249° |
| 2026-05-07 21:51 | 43.73320 | -70.06437 | 37764 ft | 384 kts | 249° |
| 2026-05-07 21:51 | 43.71609 | -70.13446 | 37747 ft | 382 kts | 246° |
| 2026-05-07 21:52 | 43.68989 | -70.19703 | 37746 ft | 380 kts | 234° |
| 2026-05-07 21:52 | 43.65643 | -70.25411 | 37750 ft | 383 kts | 233° |
| 2026-05-07 21:53 | 43.62265 | -70.31112 | 37739 ft | 382 kts | 233° |
| 2026-05-07 21:53 | 43.58873 | -70.36799 | 37793 ft | 386 kts | 233° |
| 2026-05-07 21:54 | 43.55446 | -70.42530 | 37782 ft | 387 kts | 233° |
| 2026-05-07 21:54 | 43.52006 | -70.48267 | 37783 ft | 387 kts | 233° |
| 2026-05-07 21:55 | 43.48570 | -70.53983 | 37760 ft | 385 kts | 232° |
| 2026-05-07 21:55 | 43.45177 | -70.59614 | 37776 ft | 384 kts | 232° |
| 2026-05-07 21:56 | 43.41757 | -70.65278 | 37775 ft | 384 kts | 232° |
| 2026-05-07 21:56 | 43.38335 | -70.70936 | 37776 ft | 384 kts | 232° |
| 2026-05-07 21:57 | 43.34908 | -70.76590 | 37747 ft | 384 kts | 232° |
| 2026-05-07 21:57 | 43.31498 | -70.82207 | 37756 ft | 382 kts | 232° |
| 2026-05-07 21:58 | 43.28088 | -70.87810 | 37762 ft | 382 kts | 232° |
| 2026-05-07 21:58 | 43.24685 | -70.93391 | 37774 ft | 384 kts | 232° |
| 2026-05-07 21:59 | 43.21247 | -70.99021 | 37766 ft | 385 kts | 232° |
| 2026-05-07 21:59 | 43.17799 | -71.04654 | 37770 ft | 385 kts | 232° |
| 2026-05-07 22:00 | 43.14350 | -71.10279 | 37774 ft | 385 kts | 232° |
| 2026-05-07 22:00 | 43.10898 | -71.15896 | 37784 ft | 385 kts | 232° |
| 2026-05-07 22:01 | 43.07444 | -71.21507 | 37786 ft | 385 kts | 232° |
| 2026-05-07 22:01 | 43.04038 | -71.27170 | 37774 ft | 384 kts | 233° |
| 2026-05-07 22:02 | 43.00661 | -71.32809 | 37783 ft | 383 kts | 233° |
| 2026-05-07 22:02 | 42.97292 | -71.38443 | 37782 ft | 383 kts | 233° |
| 2026-05-07 22:03 | 42.94494 | -71.43127 | 37787 ft | 383 kts | 233° |
| 2026-05-07 22:03 | 42.90576 | -71.49683 | 37786 ft | 382 kts | 233° |
| 2026-05-07 22:04 | 42.87218 | -71.55295 | 37790 ft | 380 kts | 233° |
| 2026-05-07 22:04 | 42.83859 | -71.60899 | 37794 ft | 383 kts | 233° |
| 2026-05-07 22:05 | 42.81044 | -71.65590 | 37797 ft | 383 kts | 233° |
| 2026-05-07 22:05 | 42.77671 | -71.71203 | 37800 ft | 383 kts | 233° |
| 2026-05-07 22:06 | 42.74285 | -71.76824 | 37789 ft | 382 kts | 233° |
| 2026-05-07 22:06 | 42.70916 | -71.82406 | 37814 ft | 380 kts | 233° |
| 2026-05-07 22:07 | 42.67557 | -71.87960 | 37815 ft | 380 kts | 233° |
| 2026-05-07 22:07 | 42.64205 | -71.93494 | 37841 ft | 383 kts | 233° |
| 2026-05-07 22:08 | 42.60804 | -71.99099 | 37809 ft | 384 kts | 233° |
| 2026-05-07 22:08 | 42.57399 | -72.04696 | 37811 ft | 384 kts | 233° |
| 2026-05-07 22:09 | 42.53999 | -72.10277 | 37822 ft | 383 kts | 233° |
| 2026-05-07 22:09 | 42.50590 | -72.15863 | 37833 ft | 383 kts | 233° |
| 2026-05-07 22:10 | 42.47185 | -72.21431 | 37832 ft | 383 kts | 233° |
| 2026-05-07 22:10 | 42.43773 | -72.26999 | 37815 ft | 385 kts | 233° |
| 2026-05-07 22:11 | 42.40368 | -72.32545 | 37829 ft | 385 kts | 233° |
| 2026-05-07 22:11 | 42.36942 | -72.38116 | 37815 ft | 385 kts | 233° |
| 2026-05-07 22:12 | 42.33504 | -72.43698 | 37813 ft | 385 kts | 233° |
| 2026-05-07 22:12 | 42.30070 | -72.49260 | 37805 ft | 385 kts | 233° |
| 2026-05-07 22:13 | 42.26635 | -72.54814 | 37792 ft | 383 kts | 233° |
| 2026-05-07 22:13 | 42.23246 | -72.60282 | 37839 ft | 382 kts | 233° |
| 2026-05-07 22:14 | 42.19819 | -72.65803 | 37802 ft | 385 kts | 233° |
| 2026-05-07 22:14 | 42.16372 | -72.71343 | 37847 ft | 385 kts | 233° |
| 2026-05-07 22:15 | 42.12920 | -72.76861 | 37840 ft | 384 kts | 232° |